Observation data for Bootleg on 01/12/2018      Previous  Date  Next       Current Mesonet Observations  Soil Data  Daily Summary Page  Observations in Plain Language
KBO1 120600Z 15007KT M06/M12 A3024 RMK A01 T10621115  RH  066%=      5-min Rain = 0
KBO1 120601Z 15007KT M06/M11 A3024 RMK A01 T10621114  RH  066%=      5-min Rain = 0
KBO1 120602Z 15007KT M06/M12 A3024 RMK A01 T10631115  RH  066%=      5-min Rain = 0
KBO1 120603Z 15007KT M06/M12 A3024 RMK A01 T10641116  RH  066%=      5-min Rain = 0
KBO1 120604Z 15007KT M07/M12 A3024 RMK A01 T10661117  RH  067%=      5-min Rain = 0
KBO1 120605Z 16007KT M07/M12 A3024 RMK A01 T10671117  RH  068%=      5-min Rain = 0
KBO1 120606Z 16007KT M07/M12 A3024 RMK A01 T10671116  RH  068%=      5-min Rain = 0
KBO1 120607Z 16007KT M07/M12 A3024 RMK A01 T10671116  RH  068%=      5-min Rain = 0
KBO1 120608Z 16007KT M07/M12 A3024 RMK A01 T10671117  RH  068%=      5-min Rain = 0
KBO1 120609Z 16007KT M07/M12 A3024 RMK A01 T10661117  RH  067%=      5-min Rain = 0
KBO1 120610Z 15007KT M07/M12 A3024 RMK A01 T10661117  RH  067%=      5-min Rain = 0
KBO1 120611Z 15007KT M07/M12 A3024 RMK A01 T10651116  RH  067%=      5-min Rain = 0
KBO1 120612Z 16007KT M06/M12 A3024 RMK A01 T10641116  RH  067%=      5-min Rain = 0
KBO1 120613Z 17006KT M06/M12 A3024 RMK A01 T10641115  RH  067%=      5-min Rain = 0
KBO1 120614Z 18006KT M07/M12 A3024 RMK A01 T10651116  RH  067%=      5-min Rain = 0
KBO1 120615Z 18006KT M07/M12 A3024 RMK A01 T10661118  RH  067%=      5-min Rain = 0
KBO1 120616Z 17007KT M07/M12 A3024 RMK A01 T10671118  RH  067%=      5-min Rain = 0
KBO1 120617Z 16007KT M07/M12 A3024 RMK A01 T10671118  RH  067%=      5-min Rain = 0
KBO1 120618Z 16007KT M07/M12 A3024 RMK A01 T10671117  RH  067%=      5-min Rain = 0
KBO1 120619Z 16007KT M07/M12 A3024 RMK A01 T10661117  RH  067%=      5-min Rain = 0
KBO1 120620Z 16007KT M07/M12 A3024 RMK A01 T10651116  RH  067%=      5-min Rain = 0
KBO1 120621Z 16007KT M07/M12 A3024 RMK A01 T10651117  RH  067%=      5-min Rain = 0
KBO1 120622Z 16007KT M07/M12 A3024 RMK A01 T10651117  RH  067%=      5-min Rain = 0
KBO1 120623Z 17006KT M07/M12 A3024 RMK A01 T10651118  RH  066%=      5-min Rain = 0
KBO1 120624Z 18006KT M07/M12 A3024 RMK A01 T10651118  RH  066%=      5-min Rain = 0
KBO1 120625Z 18005KT M07/M12 A3024 RMK A01 T10661119  RH  066%=      5-min Rain = 0
KBO1 120626Z 18005KT M07/M12 A3024 RMK A01 T10681120  RH  067%=      5-min Rain = 0
KBO1 120627Z 18005KT M07/M12 A3024 RMK A01 T10691120  RH  067%=      5-min Rain = 0
KBO1 120628Z 18006KT M07/M12 A3024 RMK A01 T10691120  RH  067%=      5-min Rain = 0
KBO1 120629Z 17006KT M07/M12 A3024 RMK A01 T10691120  RH  067%=      5-min Rain = 0
KBO1 120630Z 16006KT M07/M12 A3024 RMK A01 T10691120  RH  067%=      5-min Rain = 0
KBO1 120631Z 16006KT M07/M12 A3024 RMK A01 T10691120  RH  067%=      5-min Rain = 0
KBO1 120632Z 16006KT M07/M12 A3024 RMK A01 T10691120  RH  067%=      5-min Rain = 0
KBO1 120633Z 16005KT M07/M12 A3024 RMK A01 T10691120  RH  067%=      5-min Rain = 0
KBO1 120634Z 17005KT M07/M12 A3024 RMK A01 T10691120  RH  067%=      5-min Rain = 0
KBO1 120635Z 18004KT M07/M12 A3024 RMK A01 T10701121  RH  067%=      5-min Rain = 0
KBO1 120636Z 20004KT M07/M12 A3024 RMK A01 T10701120  RH  067%=      5-min Rain = 0
KBO1 120637Z 20004KT M07/M12 A3024 RMK A01 T10701121  RH  067%=      5-min Rain = 0
KBO1 120638Z 20005KT M07/M12 A3024 RMK A01 T10721122  RH  067%=      5-min Rain = 0
KBO1 120639Z 19005KT M07/M12 A3024 RMK A01 T10741123  RH  068%=      5-min Rain = 0
KBO1 120640Z 18005KT M07/M12 A3024 RMK A01 T10741123  RH  068%=      5-min Rain = 0
KBO1 120641Z 17006KT M08/M12 A3024 RMK A01 T10751122  RH  069%=      5-min Rain = 0
KBO1 120642Z 16006KT M08/M12 A3023 RMK A01 T10751122  RH  069%=      5-min Rain = 0
KBO1 120643Z 16006KT M08/M12 A3023 RMK A01 T10751121  RH  070%=      5-min Rain = 0
KBO1 120644Z 16005KT M07/M12 A3023 RMK A01 T10741120  RH  070%=      5-min Rain = 0
KBO1 120645Z 16005KT M07/M12 A3023 RMK A01 T10731120  RH  069%=      5-min Rain = 0
KBO1 120646Z 17005KT M07/M12 A3023 RMK A01 T10731121  RH  069%=      5-min Rain = 0
KBO1 120647Z 17004KT M07/M12 A3023 RMK A01 T10731120  RH  069%=      5-min Rain = 0
KBO1 120648Z 18004KT M07/M12 A3023 RMK A01 T10721119  RH  069%=      5-min Rain = 0
KBO1 120649Z 18004KT M07/M12 A3023 RMK A01 T10711119  RH  068%=      5-min Rain = 0
KBO1 120650Z 18004KT M07/M12 A3024 RMK A01 T10711120  RH  068%=      5-min Rain = 0
KBO1 120651Z 17004KT M07/M12 A3023 RMK A01 T10701120  RH  068%=      5-min Rain = 0
KBO1 120652Z 17005KT M07/M12 A3023 RMK A01 T10701120  RH  068%=      5-min Rain = 0
KBO1 120653Z 17005KT M07/M12 A3023 RMK A01 T10691119  RH  067%=      5-min Rain = 0
KBO1 120654Z 17005KT M07/M12 A3023 RMK A01 T10691120  RH  067%=      5-min Rain = 0
KBO1 120655Z 17005KT M07/M12 A3023 RMK A01 T10691120  RH  067%=      5-min Rain = 0
KBO1 120656Z 17006KT M07/M12 A3023 RMK A01 T10681120  RH  067%=      5-min Rain = 0
KBO1 120657Z 17006KT M07/M12 A3023 RMK A01 T10681120  RH  067%=      5-min Rain = 0
KBO1 120658Z 17007KT M07/M12 A3023 RMK A01 T10701121  RH  067%=      5-min Rain = 0
KBO1 120659Z 17007KT M07/M12 A3023 RMK A01 T10711122  RH  067%=      5-min Rain = 0
KBO1 120700Z 17006KT M07/M12 A3023 RMK A01 T10721123  RH  067%=      5-min Rain = 0
KBO1 120701Z 17006KT M07/M12 A3023 RMK A01 T10731123  RH  068%=      5-min Rain = 0
KBO1 120702Z 17006KT M07/M12 A3023 RMK A01 T10741123  RH  068%=      5-min Rain = 0
KBO1 120703Z 17006KT M08/M12 A3023 RMK A01 T10751123  RH  069%=      5-min Rain = 0
KBO1 120704Z 17006KT M08/M12 A3023 RMK A01 T10751122  RH  069%=      5-min Rain = 0
KBO1 120705Z 17006KT M08/M12 A3023 RMK A01 T10751122  RH  069%=      5-min Rain = 0
KBO1 120706Z 17006KT M07/M12 A3023 RMK A01 T10741121  RH  069%=      5-min Rain = 0
KBO1 120707Z 18006KT M07/M12 A3023 RMK A01 T10741121  RH  069%=      5-min Rain = 0
KBO1 120708Z 18006KT M07/M12 A3023 RMK A01 T10741121  RH  069%=      5-min Rain = 0
KBO1 120709Z 17006KT M07/M12 A3023 RMK A01 T10741121  RH  069%=      5-min Rain = 0
KBO1 120710Z 17006KT M07/M12 A3023 RMK A01 T10741122  RH  069%=      5-min Rain = 0
KBO1 120711Z 17006KT M07/M12 A3023 RMK A01 T10741122  RH  069%=      5-min Rain = 0
KBO1 120712Z 17006KT M07/M12 A3023 RMK A01 T10741121  RH  069%=      5-min Rain = 0
KBO1 120713Z 17006KT M07/M12 A3023 RMK A01 T10741121  RH  069%=      5-min Rain = 0
KBO1 120714Z 17006KT M07/M12 A3023 RMK A01 T10741121  RH  069%=      5-min Rain = 0
KBO1 120715Z 17005KT M07/M12 A3023 RMK A01 T10731120  RH  069%=      5-min Rain = 0
KBO1 120716Z 17006KT M07/M12 A3023 RMK A01 T10721120  RH  069%=      5-min Rain = 0
KBO1 120717Z 18005KT M07/M12 A3023 RMK A01 T10721120  RH  069%=      5-min Rain = 0
KBO1 120718Z 18006KT M07/M12 A3023 RMK A01 T10721119  RH  069%=      5-min Rain = 0
KBO1 120719Z 18006KT M07/M12 A3023 RMK A01 T10711119  RH  069%=      5-min Rain = 0
KBO1 120720Z 18006KT M07/M12 A3023 RMK A01 T10711119  RH  069%=      5-min Rain = 0
KBO1 120721Z 18006KT M07/M12 A3023 RMK A01 T10711119  RH  069%=      5-min Rain = 0
KBO1 120722Z 18006KT M07/M12 A3023 RMK A01 T10721119  RH  069%=      5-min Rain = 0
KBO1 120723Z 18006KT M07/M12 A3023 RMK A01 T10721119  RH  069%=      5-min Rain = 0
KBO1 120724Z 18007KT M07/M12 A3023 RMK A01 T10721120  RH  069%=      5-min Rain = 0
KBO1 120725Z 19007KT M07/M12 A3022 RMK A01 T10731120  RH  069%=      5-min Rain = 0
KBO1 120726Z 19007KT M07/M12 A3022 RMK A01 T10741120  RH  070%=      5-min Rain = 0
KBO1 120727Z 19007KT M07/M12 A3022 RMK A01 T10741119  RH  070%=      5-min Rain = 0
KBO1 120728Z 18008KT M07/M12 A3022 RMK A01 T10741118  RH  071%=      5-min Rain = 0
KBO1 120729Z 18009KT M07/M12 A3022 RMK A01 T10741118  RH  071%=      5-min Rain = 0
KBO1 120730Z 18009KT M07/M12 A3022 RMK A01 T10721115  RH  072%=      5-min Rain = 0
KBO1 120731Z 18010KT M07/M11 A3022 RMK A01 T10691111  RH  072%=      5-min Rain = 0
KBO1 120732Z 18011KT M07/M11 A3022 RMK A01 T10651109  RH  071%=      5-min Rain = 0
KBO1 120733Z 18010KT M06/M11 A3022 RMK A01 T10621108  RH  070%=      5-min Rain = 0
KBO1 120734Z 18010KT M06/M11 A3022 RMK A01 T10601108  RH  069%=      5-min Rain = 0
KBO1 120735Z 18010KT M06/M11 A3022 RMK A01 T10581108  RH  068%=      5-min Rain = 0
KBO1 120736Z 18010KT M06/M11 A3022 RMK A01 T10571109  RH  067%=      5-min Rain = 0
KBO1 120737Z 19010KT M06/M11 A3022 RMK A01 T10571109  RH  067%=      5-min Rain = 0
KBO1 120738Z 18010KT M06/M11 A3022 RMK A01 T10581110  RH  067%=      5-min Rain = 0
KBO1 120739Z 18011KT M06/M11 A3022 RMK A01 T10581110  RH  067%=      5-min Rain = 0
KBO1 120740Z 18011KT M06/M11 A3022 RMK A01 T10581110  RH  067%=      5-min Rain = 0
KBO1 120741Z 18011KT M06/M11 A3022 RMK A01 T10581110  RH  067%=      5-min Rain = 0
KBO1 120742Z 18011KT M06/M11 A3022 RMK A01 T10581110  RH  066%=      5-min Rain = 0
KBO1 120743Z 18010KT M06/M11 A3022 RMK A01 T10571110  RH  066%=      5-min Rain = 0
KBO1 120744Z 18010KT M06/M11 A3022 RMK A01 T10581111  RH  066%=      5-min Rain = 0
KBO1 120745Z 18010KT M06/M11 A3022 RMK A01 T10581111  RH  066%=      5-min Rain = 0
KBO1 120746Z 18010KT M06/M11 A3022 RMK A01 T10581112  RH  066%=      5-min Rain = 0
KBO1 120747Z 18010KT M06/M11 A3022 RMK A01 T10591112  RH  066%=      5-min Rain = 0
KBO1 120748Z 17010KT M06/M11 A3022 RMK A01 T10601113  RH  066%=      5-min Rain = 0
KBO1 120749Z 17010KT M06/M11 A3022 RMK A01 T10601113  RH  066%=      5-min Rain = 0
KBO1 120750Z 17010KT M06/M11 A3022 RMK A01 T10601112  RH  066%=      5-min Rain = 0
KBO1 120751Z 18009KT M06/M11 A3022 RMK A01 T10591112  RH  066%=      5-min Rain = 0
KBO1 120752Z 18009KT M06/M11 A3022 RMK A01 T10591112  RH  066%=      5-min Rain = 0
KBO1 120753Z 18009KT M06/M11 A3022 RMK A01 T10591113  RH  066%=      5-min Rain = 0
KBO1 120754Z 18010KT M06/M11 A3022 RMK A01 T10591113  RH  066%=      5-min Rain = 0
KBO1 120755Z 18010KT M06/M11 A3022 RMK A01 T10591112  RH  066%=      5-min Rain = 0
KBO1 120756Z 18009KT M06/M11 A3022 RMK A01 T10581112  RH  066%=      5-min Rain = 0
KBO1 120757Z 18009KT M06/M11 A3022 RMK A01 T10581112  RH  066%=      5-min Rain = 0
KBO1 120758Z 18010KT M06/M11 A3022 RMK A01 T10581112  RH  066%=      5-min Rain = 0
KBO1 120759Z 18010KT M06/M11 A3022 RMK A01 T10581112  RH  065%=      5-min Rain = 0
KBO1 120800Z 18011KT M06/M11 A3022 RMK A01 T10581112  RH  066%=      5-min Rain = 0
KBO1 120801Z 18011KT M06/M11 A3022 RMK A01 T10571112  RH  066%=      5-min Rain = 0
KBO1 120802Z 18011KT M06/M11 A3022 RMK A01 T10571111  RH  066%=      5-min Rain = 0
KBO1 120803Z 18012KT M06/M11 A3022 RMK A01 T10571111  RH  066%=      5-min Rain = 0
KBO1 120804Z 17012KT M06/M11 A3021 RMK A01 T10571111  RH  066%=      5-min Rain = 0
KBO1 120805Z 17012KT M06/M11 A3021 RMK A01 T10571111  RH  066%=      5-min Rain = 0
KBO1 120806Z 17012KT M06/M11 A3021 RMK A01 T10561110  RH  065%=      5-min Rain = 0
KBO1 120807Z 17012KT M06/M11 A3021 RMK A01 T10551110  RH  065%=      5-min Rain = 0
KBO1 120808Z 17012KT M05/M11 A3021 RMK A01 T10541110  RH  065%=      5-min Rain = 0
KBO1 120809Z 17012KT M05/M11 A3021 RMK A01 T10531110  RH  064%=      5-min Rain = 0
KBO1 120810Z 17012KT M05/M11 A3021 RMK A01 T10531110  RH  064%=      5-min Rain = 0
KBO1 120811Z 17012KT M05/M11 A3021 RMK A01 T10531110  RH  064%=      5-min Rain = 0
KBO1 120812Z 17011KT M05/M11 A302 RMK A01 T10531111  RH  064%=      5-min Rain = 0
KBO1 120813Z 17012KT M05/M11 A302 RMK A01 T10531111  RH  064%=      5-min Rain = 0
KBO1 120814Z 17012KT M05/M11 A302 RMK A01 T10541111  RH  064%=      5-min Rain = 0
KBO1 120815Z 17011KT M05/M11 A302 RMK A01 T10541111  RH  064%=      5-min Rain = 0
KBO1 120816Z 17011KT M05/M11 A302 RMK A01 T10531112  RH  064%=      5-min Rain = 0
KBO1 120817Z 17011KT M05/M11 A302 RMK A01 T10541112  RH  064%=      5-min Rain = 0
KBO1 120818Z 17011KT M05/M11 A302 RMK A01 T10541112  RH  064%=      5-min Rain = 0
KBO1 120819Z 17011KT M05/M11 A302 RMK A01 T10541112  RH  064%=      5-min Rain = 0
KBO1 120820Z 17011KT M05/M11 A302 RMK A01 T10541112  RH  064%=      5-min Rain = 0
KBO1 120821Z 17011KT M06/M11 A302 RMK A01 T10551113  RH  064%=      5-min Rain = 0
KBO1 120822Z 17011KT M06/M11 A302 RMK A01 T10551113  RH  064%=      5-min Rain = 0
KBO1 120823Z 17012KT M06/M11 A302 RMK A01 T10561113  RH  064%=      5-min Rain = 0
KBO1 120824Z 17012KT M06/M11 A302 RMK A01 T10561113  RH  064%=      5-min Rain = 0
KBO1 120825Z 17012KT M06/M11 A302 RMK A01 T10561113  RH  064%=      5-min Rain = 0
KBO1 120826Z 17012KT M06/M11 A302 RMK A01 T10571113  RH  064%=      5-min Rain = 0
KBO1 120827Z 17011KT M06/M11 A302 RMK A01 T10571114  RH  064%=      5-min Rain = 0
KBO1 120828Z 18011KT M06/M12 A302 RMK A01 T10581115  RH  064%=      5-min Rain = 0
KBO1 120829Z 17011KT M06/M12 A302 RMK A01 T10591115  RH  065%=      5-min Rain = 0
KBO1 120830Z 17010KT M06/M12 A302 RMK A01 T10601115  RH  065%=      5-min Rain = 0
KBO1 120831Z 17010KT M06/M12 A302 RMK A01 T10601115  RH  065%=      5-min Rain = 0
KBO1 120832Z 17010KT M06/M12 A302 RMK A01 T10601115  RH  065%=      5-min Rain = 0
KBO1 120833Z 17010KT M06/M12 A302 RMK A01 T10601115  RH  065%=      5-min Rain = 0
KBO1 120834Z 17010KT M06/M12 A302 RMK A01 T10601115  RH  065%=      5-min Rain = 0
KBO1 120835Z 17010KT M06/M11 A302 RMK A01 T10601114  RH  065%=      5-min Rain = 0
KBO1 120836Z 17010KT M06/M11 A302 RMK A01 T10591114  RH  065%=      5-min Rain = 0
KBO1 120837Z 17010KT M06/M11 A3019 RMK A01 T10601114  RH  066%=      5-min Rain = 0
KBO1 120838Z 17010KT M06/M11 A3019 RMK A01 T10601114  RH  066%=      5-min Rain = 0
KBO1 120839Z 17010KT M06/M11 A3019 RMK A01 T10611114  RH  066%=      5-min Rain = 0
KBO1 120840Z 17010KT M06/M11 A3019 RMK A01 T10611114  RH  066%=      5-min Rain = 0
KBO1 120841Z 17010KT M06/M11 A3019 RMK A01 T10621114  RH  067%=      5-min Rain = 0
KBO1 120842Z 17010KT M06/M11 A3019 RMK A01 T10611113  RH  067%=      5-min Rain = 0
KBO1 120843Z 17010KT M06/M11 A3019 RMK A01 T10611113  RH  067%=      5-min Rain = 0
KBO1 120844Z 17010KT M06/M11 A3019 RMK A01 T10611113  RH  067%=      5-min Rain = 0
KBO1 120845Z 17010KT M06/M11 A3019 RMK A01 T10611113  RH  066%=      5-min Rain = 0
KBO1 120846Z 17010KT M06/M11 A3019 RMK A01 T10611113  RH  067%=      5-min Rain = 0
KBO1 120847Z 17010KT M06/M11 A3019 RMK A01 T10611113  RH  067%=      5-min Rain = 0
KBO1 120848Z 17010KT M06/M11 A3019 RMK A01 T10611113  RH  067%=      5-min Rain = 0
KBO1 120849Z 17010KT M06/M11 A3019 RMK A01 T10611113  RH  067%=      5-min Rain = 0
KBO1 120850Z 17010KT M06/M11 A3019 RMK A01 T10621113  RH  067%=      5-min Rain = 0
KBO1 120851Z 17009KT M06/M11 A3019 RMK A01 T10611113  RH  067%=      5-min Rain = 0
KBO1 120852Z 17010KT M06/M11 A3019 RMK A01 T10611112  RH  067%=      5-min Rain = 0
KBO1 120853Z 17010KT M06/M11 A3019 RMK A01 T10611113  RH  067%=      5-min Rain = 0
KBO1 120854Z 17009KT M06/M11 A3019 RMK A01 T10621112  RH  067%=      5-min Rain = 0
KBO1 120855Z 17009KT M06/M11 A3019 RMK A01 T10611112  RH  067%=      5-min Rain = 0
KBO1 120856Z 17010KT M06/M11 A3019 RMK A01 T10611112  RH  067%=      5-min Rain = 0
KBO1 120857Z 17010KT M06/M11 A3019 RMK A01 T10621112  RH  068%=      5-min Rain = 0
KBO1 120858Z 17010KT M06/M11 A3019 RMK A01 T10611112  RH  068%=      5-min Rain = 0
KBO1 120859Z 17010KT M06/M11 A3019 RMK A01 T10611111  RH  068%=      5-min Rain = 0
KBO1 120900Z 17010KT M06/M11 A3019 RMK A01 T10601110  RH  067%=      5-min Rain = 0
KBO1 120901Z 17010KT M06/M11 A3019 RMK A01 T10591110  RH  067%=      5-min Rain = 0
KBO1 120902Z 17011KT M06/M11 A3019 RMK A01 T10591110  RH  067%=      5-min Rain = 0
KBO1 120903Z 17011KT M06/M11 A3019 RMK A01 T10581109  RH  067%=      5-min Rain = 0
KBO1 120904Z 17011KT M06/M11 A3019 RMK A01 T10571108  RH  067%=      5-min Rain = 0
KBO1 120905Z 17011KT M06/M11 A3019 RMK A01 T10561108  RH  067%=      5-min Rain = 0
KBO1 120906Z 17011KT M06/M11 A3019 RMK A01 T10551108  RH  066%=      5-min Rain = 0
KBO1 120907Z 17011KT M05/M11 A3019 RMK A01 T10541108  RH  066%=      5-min Rain = 0
KBO1 120908Z 17011KT M05/M11 A3018 RMK A01 T10541108  RH  066%=      5-min Rain = 0
KBO1 120909Z 17011KT M05/M11 A3018 RMK A01 T10541109  RH  065%=      5-min Rain = 0
KBO1 120910Z 17011KT M05/M11 A3018 RMK A01 T10541109  RH  065%=      5-min Rain = 0
KBO1 120911Z 17010KT M05/M11 A3019 RMK A01 T10541109  RH  065%=      5-min Rain = 0
KBO1 120912Z 17010KT M05/M11 A3019 RMK A01 T10541110  RH  065%=      5-min Rain = 0
KBO1 120913Z 18010KT M05/M11 A3019 RMK A01 T10541109  RH  065%=      5-min Rain = 0
KBO1 120914Z 18010KT M05/M11 A3019 RMK A01 T10541110  RH  065%=      5-min Rain = 0
KBO1 120915Z 18011KT M06/M11 A3019 RMK A01 T10551111  RH  065%=      5-min Rain = 0
KBO1 120916Z 17011KT M06/M11 A3019 RMK A01 T10561111  RH  065%=      5-min Rain = 0
KBO1 120917Z 17010KT M06/M11 A3019 RMK A01 T10551111  RH  065%=      5-min Rain = 0
KBO1 120918Z 17010KT M06/M11 A3019 RMK A01 T10551111  RH  065%=      5-min Rain = 0
KBO1 120919Z 17010KT M06/M11 A3019 RMK A01 T10551111  RH  065%=      5-min Rain = 0
KBO1 120920Z 17011KT M06/M11 A3019 RMK A01 T10551111  RH  065%=      5-min Rain = 0
KBO1 120921Z 17010KT M06/M11 A3019 RMK A01 T10551111  RH  065%=      5-min Rain = 0
KBO1 120922Z 17011KT M06/M11 A3019 RMK A01 T10561111  RH  065%=      5-min Rain = 0
KBO1 120923Z 17011KT M06/M11 A3019 RMK A01 T10551111  RH  065%=      5-min Rain = 0
KBO1 120924Z 17010KT M06/M11 A3019 RMK A01 T10551111  RH  065%=      5-min Rain = 0
KBO1 120925Z 17010KT M06/M11 A3019 RMK A01 T10561112  RH  065%=      5-min Rain = 0
KBO1 120926Z 17010KT M06/M11 A3019 RMK A01 T10561111  RH  065%=      5-min Rain = 0
KBO1 120927Z 17010KT M06/M11 A3019 RMK A01 T10561111  RH  065%=      5-min Rain = 0
KBO1 120928Z 17010KT M06/M11 A3019 RMK A01 T10561112  RH  065%=      5-min Rain = 0
KBO1 120929Z 17010KT M06/M11 A3019 RMK A01 T10561112  RH  065%=      5-min Rain = 0
KBO1 120930Z 17010KT M06/M11 A3019 RMK A01 T10571112  RH  065%=      5-min Rain = 0
KBO1 120931Z 17010KT M06/M11 A3019 RMK A01 T10571112  RH  065%=      5-min Rain = 0
KBO1 120932Z 17010KT M06/M11 A3019 RMK A01 T10571112  RH  065%=      5-min Rain = 0
KBO1 120933Z 17010KT M06/M11 A3019 RMK A01 T10571112  RH  065%=      5-min Rain = 0
KBO1 120934Z 17010KT M06/M11 A3019 RMK A01 T10571112  RH  065%=      5-min Rain = 0
KBO1 120935Z 17011KT M06/M11 A3019 RMK A01 T10571112  RH  066%=      5-min Rain = 0
KBO1 120936Z 17011KT M06/M11 A3018 RMK A01 T10571111  RH  066%=      5-min Rain = 0
KBO1 120937Z 17011KT M06/M11 A3018 RMK A01 T10571112  RH  066%=      5-min Rain = 0
KBO1 120938Z 17011KT M06/M11 A3018 RMK A01 T10571111  RH  066%=      5-min Rain = 0
KBO1 120939Z 17011KT M06/M11 A3018 RMK A01 T10571111  RH  066%=      5-min Rain = 0
KBO1 120940Z 17011KT M06/M11 A3018 RMK A01 T10571111  RH  066%=      5-min Rain = 0
KBO1 120941Z 17011KT M06/M11 A3018 RMK A01 T10561111  RH  066%=      5-min Rain = 0
KBO1 120942Z 17011KT M06/M11 A3018 RMK A01 T10561110  RH  065%=      5-min Rain = 0
KBO1 120943Z 17011KT M06/M11 A3018 RMK A01 T10561111  RH  065%=      5-min Rain = 0
KBO1 120944Z 17011KT M06/M11 A3019 RMK A01 T10561111  RH  065%=      5-min Rain = 0
KBO1 120945Z 17010KT M06/M11 A3019 RMK A01 T10561110  RH  065%=      5-min Rain = 0
KBO1 120946Z 17011KT M06/M11 A3018 RMK A01 T10561111  RH  065%=      5-min Rain = 0
KBO1 120947Z 17011KT M06/M11 A3018 RMK A01 T10561111  RH  065%=      5-min Rain = 0
KBO1 120948Z 17011KT M06/M11 A3018 RMK A01 T10561111  RH  065%=      5-min Rain = 0
KBO1 120949Z 17011KT M06/M11 A3019 RMK A01 T10551110  RH  065%=      5-min Rain = 0
KBO1 120950Z 17010KT M06/M11 A3019 RMK A01 T10551110  RH  065%=      5-min Rain = 0
KBO1 120951Z 17009KT M06/M11 A3019 RMK A01 T10551110  RH  065%=      5-min Rain = 0
KBO1 120952Z 17010KT M06/M11 A3019 RMK A01 T10551111  RH  065%=      5-min Rain = 0
KBO1 120953Z 17011KT M06/M11 A3018 RMK A01 T10551111  RH  065%=      5-min Rain = 0
KBO1 120954Z 17011KT M06/M11 A3018 RMK A01 T10551111  RH  065%=      5-min Rain = 0
KBO1 120955Z 17011KT M05/M11 A3018 RMK A01 T10541110  RH  065%=      5-min Rain = 0
KBO1 120956Z 17011KT M05/M11 A3018 RMK A01 T10541111  RH  065%=      5-min Rain = 0
KBO1 120957Z 18011KT M05/M11 A3018 RMK A01 T10541111  RH  065%=      5-min Rain = 0
KBO1 120958Z 17011KT M05/M11 A3018 RMK A01 T10541110  RH  064%=      5-min Rain = 0
KBO1 120959Z 18010KT M05/M11 A3018 RMK A01 T10541111  RH  064%=      5-min Rain = 0
KBO1 121000Z 18011KT M05/M11 A3018 RMK A01 T10541111  RH  064%=      5-min Rain = 0
KBO1 121001Z 18010KT M06/M11 A3018 RMK A01 T10551111  RH  064%=      5-min Rain = 0
KBO1 121002Z 18010KT M06/M11 A3018 RMK A01 T10551112  RH  065%=      5-min Rain = 0
KBO1 121003Z 18011KT M06/M11 A3018 RMK A01 T10561111  RH  065%=      5-min Rain = 0
KBO1 121004Z 18011KT M06/M11 A3018 RMK A01 T10551111  RH  065%=      5-min Rain = 0
KBO1 121005Z 18011KT M06/M11 A3018 RMK A01 T10551111  RH  065%=      5-min Rain = 0
KBO1 121006Z 18012KT M06/M11 A3018 RMK A01 T10551111  RH  065%=      5-min Rain = 0
KBO1 121007Z 18012KT M06/M11 A3018 RMK A01 T10551110  RH  065%=      5-min Rain = 0
KBO1 121008Z 18012KT M05/M11 A3018 RMK A01 T10541110  RH  065%=      5-min Rain = 0
KBO1 121009Z 18013KT M05/M11 A3018 RMK A01 T10531110  RH  065%=      5-min Rain = 0
KBO1 121010Z 18013KT M05/M11 A3018 RMK A01 T10531109  RH  064%=      5-min Rain = 0
KBO1 121011Z 18013KT M05/M11 A3018 RMK A01 T10531110  RH  064%=      5-min Rain = 0
KBO1 121012Z 18013KT M05/M11 A3018 RMK A01 T10521109  RH  064%=      5-min Rain = 0
KBO1 121013Z 18013KT M05/M11 A3018 RMK A01 T10521110  RH  064%=      5-min Rain = 0
KBO1 121014Z 18013KT M05/M11 A3017 RMK A01 T10521110  RH  064%=      5-min Rain = 0
KBO1 121015Z 18012KT M05/M11 A3017 RMK A01 T10521110  RH  064%=      5-min Rain = 0
KBO1 121016Z 18013KT M05/M11 A3017 RMK A01 T10521110  RH  064%=      5-min Rain = 0
KBO1 121017Z 18013KT M05/M11 A3017 RMK A01 T10521109  RH  064%=      5-min Rain = 0
KBO1 121018Z 18012KT M05/M11 A3017 RMK A01 T10511110  RH  064%=      5-min Rain = 0
KBO1 121019Z 18012KT M05/M11 A3017 RMK A01 T10511109  RH  063%=      5-min Rain = 0
KBO1 121020Z 18012KT M05/M11 A3017 RMK A01 T10511109  RH  063%=      5-min Rain = 0
KBO1 121021Z 18012KT M05/M11 A3017 RMK A01 T10511110  RH  063%=      5-min Rain = 0
KBO1 121022Z 18011KT M05/M11 A3017 RMK A01 T10511110  RH  063%=      5-min Rain = 0
KBO1 121023Z 19011KT M05/M11 A3017 RMK A01 T10511110  RH  063%=      5-min Rain = 0
KBO1 121024Z 19012KT M05/M11 A3017 RMK A01 T10511110  RH  063%=      5-min Rain = 0
KBO1 121025Z 18011KT M05/M11 A3017 RMK A01 T10511110  RH  063%=      5-min Rain = 0
KBO1 121026Z 18010KT M05/M11 A3017 RMK A01 T10511110  RH  063%=      5-min Rain = 0
KBO1 121027Z 18011KT M05/M11 A3017 RMK A01 T10511111  RH  063%=      5-min Rain = 0
KBO1 121028Z 17011KT M05/M11 A3017 RMK A01 T10511111  RH  063%=      5-min Rain = 0
KBO1 121029Z 17010KT M05/M11 A3017 RMK A01 T10511110  RH  063%=      5-min Rain = 0
KBO1 121030Z 17011KT M05/M11 A3017 RMK A01 T10511111  RH  063%=      5-min Rain = 0
KBO1 121031Z 17011KT M05/M11 A3017 RMK A01 T10511111  RH  063%=      5-min Rain = 0
KBO1 121032Z 17010KT M05/M11 A3017 RMK A01 T10511111  RH  063%=      5-min Rain = 0
KBO1 121033Z 18010KT M05/M11 A3017 RMK A01 T10511111  RH  063%=      5-min Rain = 0
KBO1 121034Z 18011KT M05/M11 A3017 RMK A01 T10511111  RH  063%=      5-min Rain = 0
KBO1 121035Z 18011KT M05/M11 A3017 RMK A01 T10521111  RH  063%=      5-min Rain = 0
KBO1 121036Z 18012KT M05/M11 A3017 RMK A01 T10521111  RH  063%=      5-min Rain = 0
KBO1 121037Z 18012KT M05/M11 A3017 RMK A01 T10511110  RH  063%=      5-min Rain = 0
KBO1 121038Z 18013KT M05/M11 A3016 RMK A01 T10491109  RH  063%=      5-min Rain = 0
KBO1 121039Z 18013KT M05/M11 A3016 RMK A01 T10471108  RH  062%=      5-min Rain = 0
KBO1 121040Z 18013KT M05/M11 A3016 RMK A01 T10471109  RH  062%=      5-min Rain = 0
KBO1 121041Z 18013KT M05/M11 A3016 RMK A01 T10461109  RH  061%=      5-min Rain = 0
KBO1 121042Z 18013KT M05/M11 A3016 RMK A01 T10461109  RH  061%=      5-min Rain = 0
KBO1 121043Z 18012KT M05/M11 A3016 RMK A01 T10461109  RH  061%=      5-min Rain = 0
KBO1 121044Z 18013KT M05/M11 A3016 RMK A01 T10451109  RH  061%=      5-min Rain = 0
KBO1 121045Z 18013KT M05/M11 A3016 RMK A01 T10451109  RH  061%=      5-min Rain = 0
KBO1 121046Z 18013KT M05/M11 A3016 RMK A01 T10451109  RH  061%=      5-min Rain = 0
KBO1 121047Z 18014KT M04/M11 A3016 RMK A01 T10441109  RH  061%=      5-min Rain = 0
KBO1 121048Z 18012KT M04/M11 A3016 RMK A01 T10431109  RH  060%=      5-min Rain = 0
KBO1 121049Z 18012KT M04/M11 A3016 RMK A01 T10441109  RH  060%=      5-min Rain = 0
KBO1 121050Z 18012KT M04/M11 A3017 RMK A01 T10441110  RH  060%=      5-min Rain = 0
KBO1 121051Z 19012KT M04/M11 A3017 RMK A01 T10441110  RH  060%=      5-min Rain = 0
KBO1 121052Z 19011KT M04/M11 A3017 RMK A01 T10441110  RH  060%=      5-min Rain = 0
KBO1 121053Z 19011KT M04/M11 A3017 RMK A01 T10431109  RH  060%=      5-min Rain = 0
KBO1 121054Z 19011KT M04/M11 A3018 RMK A01 T10441110  RH  060%=      5-min Rain = 0
KBO1 121055Z 19011KT M04/M11 A3018 RMK A01 T10441110  RH  060%=      5-min Rain = 0
KBO1 121056Z 18010KT M04/M11 A3018 RMK A01 T10441109  RH  060%=      5-min Rain = 0
KBO1 121057Z 18011KT M04/M11 A3018 RMK A01 T10441110  RH  060%=      5-min Rain = 0
KBO1 121058Z 18012KT M04/M11 A3017 RMK A01 T10441110  RH  060%=      5-min Rain = 0
KBO1 121059Z 18012KT M05/M11 A3017 RMK A01 T10451110  RH  060%=      5-min Rain = 0
KBO1 121100Z 18012KT M04/M11 A3017 RMK A01 T10441110  RH  060%=      5-min Rain = 0
KBO1 121101Z 18011KT M04/M11 A3017 RMK A01 T10441110  RH  060%=      5-min Rain = 0
KBO1 121102Z 18010KT M05/M11 A3017 RMK A01 T10451110  RH  060%=      5-min Rain = 0
KBO1 121103Z 18010KT M05/M11 A3018 RMK A01 T10461111  RH  060%=      5-min Rain = 0
KBO1 121104Z 18010KT M05/M11 A3018 RMK A01 T10461111  RH  061%=      5-min Rain = 0
KBO1 121105Z 18010KT M05/M11 A3018 RMK A01 T10471111  RH  061%=      5-min Rain = 0
KBO1 121106Z 18010KT M05/M11 A3018 RMK A01 T10471111  RH  061%=      5-min Rain = 0
KBO1 121107Z 18009KT M05/M11 A3018 RMK A01 T10471111  RH  061%=      5-min Rain = 0
KBO1 121108Z 18008KT M05/M11 A3018 RMK A01 T10471111  RH  061%=      5-min Rain = 0
KBO1 121109Z 18008KT M05/M11 A3018 RMK A01 T10481112  RH  061%=      5-min Rain = 0
KBO1 121110Z 18008KT M05/M11 A3018 RMK A01 T10491112  RH  061%=      5-min Rain = 0
KBO1 121111Z 18008KT M05/M11 A3018 RMK A01 T10491112  RH  061%=      5-min Rain = 0
KBO1 121112Z 18007KT M05/M11 A3018 RMK A01 T10501112  RH  061%=      5-min Rain = 0
KBO1 121113Z 19007KT M05/M11 A3018 RMK A01 T10501113  RH  062%=      5-min Rain = 0
KBO1 121114Z 19007KT M05/M11 A3018 RMK A01 T10511113  RH  062%=      5-min Rain = 0
KBO1 121115Z 18008KT M05/M11 A3018 RMK A01 T10511113  RH  062%=      5-min Rain = 0
KBO1 121116Z 18009KT M05/M11 A3018 RMK A01 T10511113  RH  062%=      5-min Rain = 0
KBO1 121117Z 18008KT M05/M11 A3018 RMK A01 T10521113  RH  062%=      5-min Rain = 0
KBO1 121118Z 18009KT M05/M11 A3018 RMK A01 T10521113  RH  062%=      5-min Rain = 0
KBO1 121119Z 18010KT M05/M11 A3018 RMK A01 T10521113  RH  062%=      5-min Rain = 0
KBO1 121120Z 18009KT M05/M11 A3018 RMK A01 T10521112  RH  062%=      5-min Rain = 0
KBO1 121121Z 18009KT M05/M11 A3018 RMK A01 T10521112  RH  063%=      5-min Rain = 0
KBO1 121122Z 18010KT M05/M11 A3018 RMK A01 T10521112  RH  063%=      5-min Rain = 0
KBO1 121123Z 18010KT M05/M11 A3017 RMK A01 T10521112  RH  063%=      5-min Rain = 0
KBO1 121124Z 18010KT M05/M11 A3017 RMK A01 T10511112  RH  063%=      5-min Rain = 0
KBO1 121125Z 18011KT M05/M11 A3017 RMK A01 T10511111  RH  062%=      5-min Rain = 0
KBO1 121126Z 18010KT M05/M11 A3017 RMK A01 T10511111  RH  062%=      5-min Rain = 0
KBO1 121127Z 17010KT M05/M11 A3017 RMK A01 T10511112  RH  062%=      5-min Rain = 0
KBO1 121128Z 18009KT M05/M11 A3018 RMK A01 T10511112  RH  062%=      5-min Rain = 0
KBO1 121129Z 17009KT M05/M11 A3018 RMK A01 T10501112  RH  062%=      5-min Rain = 0
KBO1 121130Z 17009KT M05/M11 A3018 RMK A01 T10511112  RH  062%=      5-min Rain = 0
KBO1 121131Z 17009KT M05/M11 A3017 RMK A01 T10521113  RH  062%=      5-min Rain = 0
KBO1 121132Z 17009KT M05/M11 A3017 RMK A01 T10531113  RH  063%=      5-min Rain = 0
KBO1 121133Z 17009KT M05/M11 A3017 RMK A01 T10531113  RH  063%=      5-min Rain = 0
KBO1 121134Z 17010KT M05/M11 A3017 RMK A01 T10541114  RH  063%=      5-min Rain = 0
KBO1 121135Z 17010KT M05/M11 A3017 RMK A01 T10541113  RH  063%=      5-min Rain = 0
KBO1 121136Z 17010KT M06/M11 A3017 RMK A01 T10551113  RH  063%=      5-min Rain = 0
KBO1 121137Z 17011KT M06/M11 A3017 RMK A01 T10551114  RH  063%=      5-min Rain = 0
KBO1 121138Z 17011KT M06/M11 A3017 RMK A01 T10551114  RH  063%=      5-min Rain = 0
KBO1 121139Z 17010KT M06/M11 A3017 RMK A01 T10551113  RH  063%=      5-min Rain = 0
KBO1 121140Z 17010KT M05/M11 A3017 RMK A01 T10541113  RH  063%=      5-min Rain = 0
KBO1 121141Z 17010KT M06/M11 A3017 RMK A01 T10551113  RH  063%=      5-min Rain = 0
KBO1 121142Z 17010KT M06/M11 A3017 RMK A01 T10551114  RH  063%=      5-min Rain = 0
KBO1 121143Z 17010KT M05/M11 A3017 RMK A01 T10541113  RH  063%=      5-min Rain = 0
KBO1 121144Z 17009KT M05/M11 A3017 RMK A01 T10541113  RH  063%=      5-min Rain = 0
KBO1 121145Z 17009KT M05/M11 A3017 RMK A01 T10541113  RH  063%=      5-min Rain = 0
KBO1 121146Z 17009KT M06/M11 A3017 RMK A01 T10551114  RH  063%=      5-min Rain = 0
KBO1 121147Z 17009KT M06/M12 A3017 RMK A01 T10561115  RH  063%=      5-min Rain = 0
KBO1 121148Z 17009KT M06/M12 A3017 RMK A01 T10561115  RH  063%=      5-min Rain = 0
KBO1 121149Z 17009KT M06/M12 A3017 RMK A01 T10571115  RH  064%=      5-min Rain = 0
KBO1 121150Z 17009KT M06/M12 A3017 RMK A01 T10581115  RH  064%=      5-min Rain = 0
KBO1 121151Z 17009KT M06/M12 A3017 RMK A01 T10581115  RH  064%=      5-min Rain = 0
KBO1 121152Z 17009KT M06/M12 A3017 RMK A01 T10581115  RH  064%=      5-min Rain = 0
KBO1 121153Z 18009KT M06/M12 A3017 RMK A01 T10591115  RH  064%=      5-min Rain = 0
KBO1 121154Z 18009KT M06/M12 A3017 RMK A01 T10591115  RH  064%=      5-min Rain = 0
KBO1 121155Z 18009KT M06/M12 A3017 RMK A01 T10591115  RH  064%=      5-min Rain = 0
KBO1 121156Z 18010KT M06/M12 A3017 RMK A01 T10591115  RH  065%=      5-min Rain = 0
KBO1 121157Z 18009KT M06/M12 A3017 RMK A01 T10591115  RH  065%=      5-min Rain = 0
KBO1 121158Z 18010KT M06/M12 A3017 RMK A01 T10591115  RH  065%=      5-min Rain = 0
KBO1 121159Z 18011KT M06/M11 A3017 RMK A01 T10581114  RH  065%=      5-min Rain = 0
KBO1 121200Z 18011KT M06/M11 A3017 RMK A01 T10581114  RH  065%=      5-min Rain = 0
KBO1 121201Z 18011KT M06/M11 A3017 RMK A01 T10561112  RH  064%=      5-min Rain = 0
KBO1 121202Z 18012KT M06/M11 A3017 RMK A01 T10551112  RH  064%=      5-min Rain = 0
KBO1 121203Z 18012KT M05/M11 A3016 RMK A01 T10531112  RH  064%=      5-min Rain = 0
KBO1 121204Z 18011KT M05/M11 A3016 RMK A01 T10521111  RH  063%=      5-min Rain = 0
KBO1 121205Z 18012KT M05/M11 A3016 RMK A01 T10521112  RH  063%=      5-min Rain = 0
KBO1 121206Z 18011KT M05/M11 A3016 RMK A01 T10521112  RH  063%=      5-min Rain = 0
KBO1 121207Z 18011KT M05/M11 A3016 RMK A01 T10521112  RH  063%=      5-min Rain = 0
KBO1 121208Z 18012KT M05/M11 A3016 RMK A01 T10521112  RH  063%=      5-min Rain = 0
KBO1 121209Z 18012KT M05/M11 A3016 RMK A01 T10511111  RH  062%=      5-min Rain = 0
KBO1 121210Z 18012KT M05/M11 A3016 RMK A01 T10501111  RH  062%=      5-min Rain = 0
KBO1 121211Z 18013KT M05/M11 A3016 RMK A01 T10491111  RH  062%=      5-min Rain = 0
KBO1 121212Z 18012KT M05/M11 A3016 RMK A01 T10501112  RH  062%=      5-min Rain = 0
KBO1 121213Z 18011KT M05/M11 A3016 RMK A01 T10501112  RH  062%=      5-min Rain = 0
KBO1 121214Z 18012KT M05/M11 A3016 RMK A01 T10501112  RH  062%=      5-min Rain = 0
KBO1 121215Z 18012KT M05/M11 A3016 RMK A01 T10501112  RH  062%=      5-min Rain = 0
KBO1 121216Z 18011KT M05/M11 A3016 RMK A01 T10501112  RH  062%=      5-min Rain = 0
KBO1 121217Z 18012KT M05/M11 A3016 RMK A01 T10501112  RH  062%=      5-min Rain = 0
KBO1 121218Z 18012KT M05/M11 A3016 RMK A01 T10511113  RH  062%=      5-min Rain = 0
KBO1 121219Z 18012KT M05/M11 A3016 RMK A01 T10501112  RH  062%=      5-min Rain = 0
KBO1 121220Z 18013KT M05/M11 A3016 RMK A01 T10501112  RH  062%=      5-min Rain = 0
KBO1 121221Z 18013KT M05/M11 A3016 RMK A01 T10501113  RH  061%=      5-min Rain = 0
KBO1 121222Z 18012KT M05/M11 A3016 RMK A01 T10501112  RH  061%=      5-min Rain = 0
KBO1 121223Z 18012KT M05/M11 A3016 RMK A01 T10501112  RH  061%=      5-min Rain = 0
KBO1 121224Z 18011KT M05/M11 A3016 RMK A01 T10491112  RH  061%=      5-min Rain = 0
KBO1 121225Z 18011KT M05/M11 A3016 RMK A01 T10491112  RH  061%=      5-min Rain = 0
KBO1 121226Z 17012KT M05/M11 A3016 RMK A01 T10501112  RH  061%=      5-min Rain = 0
KBO1 121227Z 17010KT M05/M11 A3016 RMK A01 T10491112  RH  061%=      5-min Rain = 0
KBO1 121228Z 17010KT M05/M11 A3016 RMK A01 T10491112  RH  061%=      5-min Rain = 0
KBO1 121229Z 17011KT M05/M11 A3016 RMK A01 T10481112  RH  061%=      5-min Rain = 0
KBO1 121230Z 18010KT M05/M11 A3016 RMK A01 T10481112  RH  061%=      5-min Rain = 0
KBO1 121231Z 18011KT M05/M11 A3016 RMK A01 T10481112  RH  061%=      5-min Rain = 0
KBO1 121232Z 18012KT M05/M11 A3016 RMK A01 T10481113  RH  061%=      5-min Rain = 0
KBO1 121233Z 18011KT M05/M11 A3016 RMK A01 T10481112  RH  061%=      5-min Rain = 0
KBO1 121234Z 18011KT M05/M11 A3016 RMK A01 T10471112  RH  061%=      5-min Rain = 0
KBO1 121235Z 18011KT M05/M11 A3016 RMK A01 T10471112  RH  061%=      5-min Rain = 0
KBO1 121236Z 18011KT M05/M11 A3016 RMK A01 T10471112  RH  060%=      5-min Rain = 0
KBO1 121237Z 18011KT M05/M11 A3016 RMK A01 T10481113  RH  060%=      5-min Rain = 0
KBO1 121238Z 18010KT M05/M11 A3016 RMK A01 T10481112  RH  061%=      5-min Rain = 0
KBO1 121239Z 18011KT M05/M11 A3016 RMK A01 T10481113  RH  061%=      5-min Rain = 0
KBO1 121240Z 18011KT M05/M11 A3016 RMK A01 T10491113  RH  061%=      5-min Rain = 0
KBO1 121241Z 18010KT M05/M11 A3016 RMK A01 T10501114  RH  061%=      5-min Rain = 0
KBO1 121242Z 18010KT M05/M11 A3016 RMK A01 T10511114  RH  061%=      5-min Rain = 0
KBO1 121243Z 18010KT M05/M11 A3016 RMK A01 T10521114  RH  062%=      5-min Rain = 0
KBO1 121244Z 18010KT M05/M11 A3016 RMK A01 T10531114  RH  062%=      5-min Rain = 0
KBO1 121245Z 18010KT M05/M12 A3016 RMK A01 T10531115  RH  062%=      5-min Rain = 0
KBO1 121246Z 18010KT M05/M12 A3016 RMK A01 T10541115  RH  062%=      5-min Rain = 0
KBO1 121247Z 17010KT M05/M11 A3016 RMK A01 T10541114  RH  062%=      5-min Rain = 0
KBO1 121248Z 18010KT M06/M12 A3016 RMK A01 T10551115  RH  063%=      5-min Rain = 0
KBO1 121249Z 18009KT M06/M12 A3016 RMK A01 T10551115  RH  063%=      5-min Rain = 0
KBO1 121250Z 18009KT M06/M12 A3016 RMK A01 T10561115  RH  063%=      5-min Rain = 0
KBO1 121251Z 18008KT M06/M12 A3016 RMK A01 T10561115  RH  063%=      5-min Rain = 0
KBO1 121252Z 17008KT M06/M12 A3017 RMK A01 T10571115  RH  063%=      5-min Rain = 0
KBO1 121253Z 17008KT M06/M12 A3016 RMK A01 T10581116  RH  063%=      5-min Rain = 0
KBO1 121254Z 17007KT M06/M12 A3017 RMK A01 T10581116  RH  064%=      5-min Rain = 0
KBO1 121255Z 17007KT M06/M12 A3017 RMK A01 T10581116  RH  064%=      5-min Rain = 0
KBO1 121256Z 17007KT M06/M12 A3017 RMK A01 T10581116  RH  064%=      5-min Rain = 0
KBO1 121257Z 17008KT M06/M12 A3017 RMK A01 T10591116  RH  064%=      5-min Rain = 0
KBO1 121258Z 17007KT M06/M12 A3017 RMK A01 T10591116  RH  064%=      5-min Rain = 0
KBO1 121259Z 17007KT M06/M12 A3017 RMK A01 T10591116  RH  064%=      5-min Rain = 0
KBO1 121300Z 16006KT M06/M12 A3017 RMK A01 T10591116  RH  064%=      5-min Rain = 0
KBO1 121301Z 16005KT M06/M12 A3017 RMK A01 T10591116  RH  064%=      5-min Rain = 0
KBO1 121302Z 17005KT M06/M12 A3016 RMK A01 T10591116  RH  064%=      5-min Rain = 0
KBO1 121303Z 17005KT M06/M12 A3016 RMK A01 T10601117  RH  064%=      5-min Rain = 0
KBO1 121304Z 17006KT M06/M12 A3016 RMK A01 T10601117  RH  064%=      5-min Rain = 0
KBO1 121305Z 17005KT M06/M12 A3016 RMK A01 T10611117  RH  064%=      5-min Rain = 0
KBO1 121306Z 17006KT M06/M12 A3016 RMK A01 T10611117  RH  064%=      5-min Rain = 0
KBO1 121307Z 17006KT M06/M12 A3016 RMK A01 T10611117  RH  065%=      5-min Rain = 0
KBO1 121308Z 17006KT M06/M12 A3016 RMK A01 T10611117  RH  065%=      5-min Rain = 0
KBO1 121309Z 18005KT M06/M12 A3016 RMK A01 T10621117  RH  065%=      5-min Rain = 0
KBO1 121310Z 17007KT M06/M12 A3016 RMK A01 T10621117  RH  065%=      5-min Rain = 0
KBO1 121311Z 18008KT M06/M12 A3016 RMK A01 T10621117  RH  065%=      5-min Rain = 0
KBO1 121312Z 18008KT M06/M12 A3016 RMK A01 T10631117  RH  065%=      5-min Rain = 0
KBO1 121313Z 19007KT M06/M12 A3016 RMK A01 T10631117  RH  066%=      5-min Rain = 0
KBO1 121314Z 19007KT M06/M12 A3016 RMK A01 T10631116  RH  066%=      5-min Rain = 0
KBO1 121315Z 19007KT M06/M12 A3016 RMK A01 T10621115  RH  066%=      5-min Rain = 0
KBO1 121316Z 19007KT M06/M12 A3016 RMK A01 T10621115  RH  066%=      5-min Rain = 0
KBO1 121317Z 19007KT M06/M12 A3016 RMK A01 T10621115  RH  066%=      5-min Rain = 0
KBO1 121318Z 19007KT M06/M12 A3016 RMK A01 T10621115  RH  066%=      5-min Rain = 0
KBO1 121319Z 19008KT M06/M12 A3016 RMK A01 T10621115  RH  066%=      5-min Rain = 0
KBO1 121320Z 19008KT M06/M12 A3016 RMK A01 T10621115  RH  066%=      5-min Rain = 0
KBO1 121321Z 19007KT M06/M12 A3016 RMK A01 T10621115  RH  066%=      5-min Rain = 0
KBO1 121322Z 19008KT M06/M11 A3016 RMK A01 T10611114  RH  066%=      5-min Rain = 0
KBO1 121323Z 19008KT M06/M11 A3016 RMK A01 T10601114  RH  066%=      5-min Rain = 0
KBO1 121324Z 19008KT M06/M11 A3016 RMK A01 T10601114  RH  065%=      5-min Rain = 0
KBO1 121325Z 19008KT M06/M12 A3016 RMK A01 T10601115  RH  065%=      5-min Rain = 0
KBO1 121326Z 18008KT M06/M12 A3016 RMK A01 T10601115  RH  065%=      5-min Rain = 0
KBO1 121327Z 18010KT M06/M11 A3016 RMK A01 T10591114  RH  065%=      5-min Rain = 0
KBO1 121328Z 19010KT M06/M11 A3016 RMK A01 T10591113  RH  065%=      5-min Rain = 0
KBO1 121329Z 18009KT M06/M11 A3016 RMK A01 T10571112  RH  065%=      5-min Rain = 0
KBO1 121330Z 18009KT M06/M11 A3016 RMK A01 T10551112  RH  064%=      5-min Rain = 0
KBO1 121331Z 18009KT M06/M11 A3016 RMK A01 T10551113  RH  064%=      5-min Rain = 0
KBO1 121332Z 18009KT M06/M11 A3016 RMK A01 T10561113  RH  064%=      5-min Rain = 0
KBO1 121333Z 18008KT M06/M11 A3016 RMK A01 T10571114  RH  064%=      5-min Rain = 0
KBO1 121334Z 18008KT M06/M11 A3016 RMK A01 T10571114  RH  064%=      5-min Rain = 0
KBO1 121335Z 19007KT M06/M11 A3016 RMK A01 T10571114  RH  064%=      5-min Rain = 0
KBO1 121336Z 19007KT M06/M11 A3016 RMK A01 T10571114  RH  065%=      5-min Rain = 0
KBO1 121337Z 19007KT M06/M11 A3016 RMK A01 T10581114  RH  065%=      5-min Rain = 0
KBO1 121338Z 19007KT M06/M11 A3016 RMK A01 T10581114  RH  065%=      5-min Rain = 0
KBO1 121339Z 19006KT M06/M11 A3016 RMK A01 T10591114  RH  065%=      5-min Rain = 0
KBO1 121340Z 20006KT M06/M11 A3016 RMK A01 T10591114  RH  065%=      5-min Rain = 0
KBO1 121341Z 20006KT M06/M11 A3017 RMK A01 T10591114  RH  065%=      5-min Rain = 0
KBO1 121342Z 20006KT M06/M11 A3017 RMK A01 T10591114  RH  065%=      5-min Rain = 0
KBO1 121343Z 20006KT M06/M12 A3017 RMK A01 T10601115  RH  065%=      5-min Rain = 0
KBO1 121344Z 19005KT M06/M11 A3017 RMK A01 T10601114  RH  065%=      5-min Rain = 0
KBO1 121345Z 19005KT M06/M11 A3017 RMK A01 T10591114  RH  065%=      5-min Rain = 0
KBO1 121346Z 19005KT M06/M11 A3017 RMK A01 T10591114  RH  065%=      5-min Rain = 0
KBO1 121347Z 19005KT M06/M12 A3017 RMK A01 T10601115  RH  065%=      5-min Rain = 0
KBO1 121348Z 19005KT M06/M12 A3017 RMK A01 T10601115  RH  065%=      5-min Rain = 0
KBO1 121349Z 19005KT M06/M12 A3017 RMK A01 T10601115  RH  065%=      5-min Rain = 0
KBO1 121350Z 19004KT M06/M12 A3017 RMK A01 T10611115  RH  065%=      5-min Rain = 0
KBO1 121351Z 19004KT M06/M12 A3017 RMK A01 T10611115  RH  065%=      5-min Rain = 0
KBO1 121352Z 19004KT M06/M12 A3018 RMK A01 T10611115  RH  066%=      5-min Rain = 0
KBO1 121353Z 19004KT M06/M12 A3018 RMK A01 T10611115  RH  065%=      5-min Rain = 0
KBO1 121354Z 18004KT M06/M12 A3018 RMK A01 T10611115  RH  065%=      5-min Rain = 0
KBO1 121355Z 18004KT M06/M12 A3018 RMK A01 T10611116  RH  065%=      5-min Rain = 0
KBO1 121356Z 18005KT M06/M12 A3018 RMK A01 T10611115  RH  065%=      5-min Rain = 0
KBO1 121357Z 18005KT M06/M12 A3018 RMK A01 T10611116  RH  065%=      5-min Rain = 0
KBO1 121358Z 17006KT M06/M12 A3017 RMK A01 T10611116  RH  065%=      5-min Rain = 0
KBO1 121359Z 17007KT M06/M12 A3017 RMK A01 T10621117  RH  065%=      5-min Rain = 0
KBO1 121400Z 18007KT M06/M12 A3017 RMK A01 T10621117  RH  065%=      5-min Rain = 0
KBO1 121401Z 18007KT M06/M12 A3017 RMK A01 T10621116  RH  066%=      5-min Rain = 0
KBO1 121402Z 18008KT M06/M12 A3017 RMK A01 T10621116  RH  066%=      5-min Rain = 0
KBO1 121403Z 18008KT M06/M12 A3017 RMK A01 T10621115  RH  066%=      5-min Rain = 0
KBO1 121404Z 18009KT M06/M12 A3017 RMK A01 T10621115  RH  066%=      5-min Rain = 0
KBO1 121405Z 18009KT M06/M12 A3017 RMK A01 T10621115  RH  066%=      5-min Rain = 0
KBO1 121406Z 18009KT M06/M12 A3017 RMK A01 T10631116  RH  066%=      5-min Rain = 0
KBO1 121407Z 18009KT M06/M12 A3017 RMK A01 T10641116  RH  067%=      5-min Rain = 0
KBO1 121408Z 18010KT M07/M12 A3017 RMK A01 T10651116  RH  067%=      5-min Rain = 0
KBO1 121409Z 18010KT M06/M12 A3017 RMK A01 T10641115  RH  067%=      5-min Rain = 0
KBO1 121410Z 18010KT M06/M12 A3016 RMK A01 T10641115  RH  067%=      5-min Rain = 0
KBO1 121411Z 18010KT M06/M12 A3016 RMK A01 T10641115  RH  067%=      5-min Rain = 0
KBO1 121412Z 19010KT M06/M11 A3016 RMK A01 T10631114  RH  067%=      5-min Rain = 0
KBO1 121413Z 19010KT M06/M11 A3016 RMK A01 T10621113  RH  067%=      5-min Rain = 0
KBO1 121414Z 19010KT M06/M11 A3016 RMK A01 T10611113  RH  067%=      5-min Rain = 0
KBO1 121415Z 19009KT M06/M11 A3017 RMK A01 T10601113  RH  067%=      5-min Rain = 0
KBO1 121416Z 19009KT M06/M11 A3016 RMK A01 T10601113  RH  066%=      5-min Rain = 0
KBO1 121417Z 19010KT M06/M11 A3016 RMK A01 T10591112  RH  066%=      5-min Rain = 0
KBO1 121418Z 19009KT M06/M11 A3016 RMK A01 T10581111  RH  066%=      5-min Rain = 0
KBO1 121419Z 19009KT M06/M11 A3017 RMK A01 T10581111  RH  066%=      5-min Rain = 0
KBO1 121420Z 19009KT M06/M11 A3017 RMK A01 T10561111  RH  066%=      5-min Rain = 0
KBO1 121421Z 18008KT M06/M11 A3016 RMK A01 T10551110  RH  065%=      5-min Rain = 0
KBO1 121422Z 18008KT M05/M11 A3016 RMK A01 T10541110  RH  065%=      5-min Rain = 0
KBO1 121423Z 18008KT M05/M11 A3016 RMK A01 T10531110  RH  065%=      5-min Rain = 0
KBO1 121424Z 18008KT M05/M11 A3016 RMK A01 T10531110  RH  064%=      5-min Rain = 0
KBO1 121425Z 18008KT M05/M11 A3016 RMK A01 T10521109  RH  064%=      5-min Rain = 0
KBO1 121426Z 18009KT M05/M11 A3016 RMK A01 T10511109  RH  064%=      5-min Rain = 0
KBO1 121427Z 18010KT M05/M11 A3016 RMK A01 T10501109  RH  063%=      5-min Rain = 0
KBO1 121428Z 18009KT M05/M11 A3016 RMK A01 T10491108  RH  063%=      5-min Rain = 0
KBO1 121429Z 18010KT M05/M11 A3016 RMK A01 T10491109  RH  063%=      5-min Rain = 0
KBO1 121430Z 19009KT M05/M11 A3016 RMK A01 T10481109  RH  063%=      5-min Rain = 0
KBO1 121431Z 19009KT M05/M11 A3016 RMK A01 T10481109  RH  063%=      5-min Rain = 0
KBO1 121432Z 18009KT M05/M11 A3016 RMK A01 T10481109  RH  062%=      5-min Rain = 0
KBO1 121433Z 18009KT M05/M11 A3016 RMK A01 T10481109  RH  062%=      5-min Rain = 0
KBO1 121434Z 18009KT M05/M11 A3016 RMK A01 T10471108  RH  062%=      5-min Rain = 0
KBO1 121435Z 18010KT M05/M11 A3016 RMK A01 T10471109  RH  062%=      5-min Rain = 0
KBO1 121436Z 18009KT M05/M11 A3016 RMK A01 T10471109  RH  062%=      5-min Rain = 0
KBO1 121437Z 18009KT M05/M11 A3016 RMK A01 T10471109  RH  062%=      5-min Rain = 0
KBO1 121438Z 19009KT M05/M11 A3016 RMK A01 T10461108  RH  062%=      5-min Rain = 0
KBO1 121439Z 19010KT M05/M11 A3016 RMK A01 T10461108  RH  062%=      5-min Rain = 0
KBO1 121440Z 18010KT M05/M11 A3016 RMK A01 T10461108  RH  062%=      5-min Rain = 0
KBO1 121441Z 18010KT M05/M11 A3015 RMK A01 T10461108  RH  062%=      5-min Rain = 0
KBO1 121442Z 18010KT M05/M11 A3015 RMK A01 T10451108  RH  062%=      5-min Rain = 0
KBO1 121443Z 18010KT M04/M11 A3015 RMK A01 T10441107  RH  062%=      5-min Rain = 0
KBO1 121444Z 18011KT M04/M11 A3015 RMK A01 T10441107  RH  061%=      5-min Rain = 0
KBO1 121445Z 18011KT M04/M11 A3015 RMK A01 T10441107  RH  061%=      5-min Rain = 0
KBO1 121446Z 18010KT M04/M11 A3015 RMK A01 T10431107  RH  061%=      5-min Rain = 0
KBO1 121447Z 19010KT M04/M11 A3015 RMK A01 T10421106  RH  061%=      5-min Rain = 0
KBO1 121448Z 19010KT M04/M11 A3015 RMK A01 T10411106  RH  061%=      5-min Rain = 0
KBO1 121449Z 18011KT M04/M11 A3015 RMK A01 T10391105  RH  060%=      5-min Rain = 0
KBO1 121450Z 18011KT M04/M11 A3015 RMK A01 T10381105  RH  060%=      5-min Rain = 0
KBO1 121451Z 19010KT M04/M10 A3015 RMK A01 T10361104  RH  059%=      5-min Rain = 0
KBO1 121452Z 19011KT M04/M11 A3015 RMK A01 T10351105  RH  059%=      5-min Rain = 0
KBO1 121453Z 19012KT M03/M11 A3015 RMK A01 T10341105  RH  058%=      5-min Rain = 0
KBO1 121454Z 18011KT M03/M11 A3015 RMK A01 T10341105  RH  058%=      5-min Rain = 0
KBO1 121455Z 18010KT M03/M11 A3015 RMK A01 T10341106  RH  058%=      5-min Rain = 0
KBO1 121456Z 18010KT M03/M11 A3015 RMK A01 T10331106  RH  057%=      5-min Rain = 0
KBO1 121457Z 18010KT M03/M11 A3015 RMK A01 T10331105  RH  058%=      5-min Rain = 0
KBO1 121458Z 19010KT M03/M10 A3015 RMK A01 T10321104  RH  057%=      5-min Rain = 0
KBO1 121459Z 18011KT M03/M10 A3015 RMK A01 T10321104  RH  057%=      5-min Rain = 0
KBO1 121500Z 18011KT M03/M10 A3015 RMK A01 T10311104  RH  057%=      5-min Rain = 0
KBO1 121501Z 18012KT M03/M11 A3015 RMK A01 T10311105  RH  057%=      5-min Rain = 0
KBO1 121502Z 18012KT M03/M10 A3014 RMK A01 T10301104  RH  057%=      5-min Rain = 0
KBO1 121503Z 19012KT M03/M10 A3014 RMK A01 T10291104  RH  056%=      5-min Rain = 0
KBO1 121504Z 19013KT M03/M10 A3014 RMK A01 T10291104  RH  056%=      5-min Rain = 0
KBO1 121505Z 19013KT M03/M10 A3014 RMK A01 T10281104  RH  056%=      5-min Rain = 0
KBO1 121506Z 19016KT M03/M10 A3014 RMK A01 T10281104  RH  056%=      5-min Rain = 0
KBO1 121507Z 19014KT M03/M10 A3013 RMK A01 T10261103  RH  055%=      5-min Rain = 0
KBO1 121508Z 19015KT M03/M10 A3013 RMK A01 T10251102  RH  055%=      5-min Rain = 0
KBO1 121509Z 19016KT M02/M10 A3013 RMK A01 T10241102  RH  055%=      5-min Rain = 0
KBO1 121510Z 19017KT M02/M10 A3013 RMK A01 T10231102  RH  055%=      5-min Rain = 0
KBO1 121511Z 19016KT M02/M10 A3013 RMK A01 T10221101  RH  054%=      5-min Rain = 0
KBO1 121512Z 19017KT M02/M10 A3012 RMK A01 T10211101  RH  054%=      5-min Rain = 0
KBO1 121513Z 19019KT M02/M10 A3012 RMK A01 T10201102  RH  054%=      5-min Rain = 0
KBO1 121514Z 20019KT M02/M10 A3012 RMK A01 T10201102  RH  054%=      5-min Rain = 0
KBO1 121515Z 20019KT M02/M10 A3012 RMK A01 T10201102  RH  053%=      5-min Rain = 0
KBO1 121516Z 19018KT M02/M10 A3012 RMK A01 T10201102  RH  053%=      5-min Rain = 0
KBO1 121517Z 20019KT M02/M10 A3012 RMK A01 T10191102  RH  053%=      5-min Rain = 0
KBO1 121518Z 20020KT M02/M10 A3012 RMK A01 T10191101  RH  053%=      5-min Rain = 0
KBO1 121519Z 19019KT M02/M10 A3012 RMK A01 T10181101  RH  053%=      5-min Rain = 0
KBO1 121520Z 20019KT M02/M10 A3013 RMK A01 T10171101  RH  053%=      5-min Rain = 0
KBO1 121521Z 20018KT M02/M10 A3013 RMK A01 T10171101  RH  053%=      5-min Rain = 0
KBO1 121522Z 20018KT M02/M10 A3013 RMK A01 T10171100  RH  053%=      5-min Rain = 0
KBO1 121523Z 20018KT M02/M10 A3013 RMK A01 T10161099  RH  053%=      5-min Rain = 0
KBO1 121524Z 20019KT M02/M10 A3013 RMK A01 T10151098  RH  053%=      5-min Rain = 0
KBO1 121525Z 20016KT M01/M10 A3013 RMK A01 T10141098  RH  053%=      5-min Rain = 0
KBO1 121526Z 20017KT M01/M10 A3013 RMK A01 T10131097  RH  053%=      5-min Rain = 0
KBO1 121527Z 20015KT M01/M10 A3013 RMK A01 T10121096  RH  053%=      5-min Rain = 0
KBO1 121528Z 20017KT M01/M10 A3013 RMK A01 T10111096  RH  053%=      5-min Rain = 0
KBO1 121529Z 20016KT M01/M10 A3013 RMK A01 T10101095  RH  052%=      5-min Rain = 0
KBO1 121530Z 20016KT M01/M10 A3013 RMK A01 T10091095  RH  052%=      5-min Rain = 0
KBO1 121531Z 20016KT M01/M10 A3013 RMK A01 T10081095  RH  052%=      5-min Rain = 0
KBO1 121532Z 19017KT M01/M10 A3013 RMK A01 T10081095  RH  052%=      5-min Rain = 0
KBO1 121533Z 19016KT M01/M10 A3013 RMK A01 T10081095  RH  051%=      5-min Rain = 0
KBO1 121534Z 19015KT M01/M10 A3013 RMK A01 T10071095  RH  051%=      5-min Rain = 0
KBO1 121535Z 19015KT M01/M10 A3013 RMK A01 T10071095  RH  051%=      5-min Rain = 0
KBO1 121536Z 19015KT M01/M10 A3013 RMK A01 T10071096  RH  051%=      5-min Rain = 0
KBO1 121537Z 19018KT M01/M10 A3012 RMK A01 T10071096  RH  051%=      5-min Rain = 0
KBO1 121538Z 19016KT M01/M10 A3012 RMK A01 T10081097  RH  051%=      5-min Rain = 0
KBO1 121539Z 19019KT M01/M10 A3012 RMK A01 T10081096  RH  051%=      5-min Rain = 0
KBO1 121540Z 20018KT M01/M10 A3012 RMK A01 T10071095  RH  051%=      5-min Rain = 0
KBO1 121541Z 19015KT M01/M10 A3013 RMK A01 T10071095  RH  051%=      5-min Rain = 0
KBO1 121542Z 19012KT M01/M09 A3013 RMK A01 T10051093  RH  051%=      5-min Rain = 0
KBO1 121543Z 19011G16KT M00/M09 A3014 RMK A01 T10041093  RH  051%=      5-min Rain = 0
KBO1 121544Z 20009KT M00/M09 A3015 RMK A01 T10031093  RH  051%=      5-min Rain = 0
KBO1 121545Z 20006KT M00/M09 A3016 RMK A01 T10031093  RH  051%=      5-min Rain = 0
KBO1 121546Z 20008KT M00/M09 A3016 RMK A01 T10031092  RH  051%=      5-min Rain = 0
KBO1 121547Z 20011KT M00/M09 A3016 RMK A01 T10031092  RH  051%=      5-min Rain = 0
KBO1 121548Z 20011KT M00/M09 A3015 RMK A01 T10031091  RH  051%=      5-min Rain = 0
KBO1 121549Z 19010KT M00/M09 A3015 RMK A01 T10021091  RH  051%=      5-min Rain = 0
KBO1 121550Z 19010KT M00/M09 A3015 RMK A01 T10011090  RH  051%=      5-min Rain = 0
KBO1 121551Z 20010KT 00/09 A3016 RMK A01 T00000-89  RH  051%=      5-min Rain = 0
KBO1 121552Z 21006KT 00/09 A3016 RMK A01 T00000-89  RH  051%=      5-min Rain = 0
KBO1 121553Z 21004KT 00/09 A3017 RMK A01 T00-00-89  RH  051%=      5-min Rain = 0
KBO1 121554Z 22003KT 00/09 A3017 RMK A01 T00000-88  RH  052%=      5-min Rain = 0
KBO1 121555Z 24003KT 00/M09 A3017 RMK A01 T00021086  RH  052%=      5-min Rain = 0
KBO1 121556Z 23006KT 00/M08 A3017 RMK A01 T00021083  RH  052%=      5-min Rain = 0
KBO1 121557Z 22005KT 00/M08 A3017 RMK A01 T00031081  RH  053%=      5-min Rain = 0
KBO1 121558Z 22006KT 00/M08 A3017 RMK A01 T00031080  RH  054%=      5-min Rain = 0
KBO1 121559Z 21006KT 00/M08 A3017 RMK A01 T00031080  RH  054%=      5-min Rain = 0
KBO1 121600Z 21005KT 00/M08 A3017 RMK A01 T00031080  RH  054%=      5-min Rain = 0
KBO1 121601Z 19005KT 00/M08 A3017 RMK A01 T00031082  RH  053%=      5-min Rain = 0
KBO1 121602Z 19008KT 00/M08 A3017 RMK A01 T00041081  RH  053%=      5-min Rain = 0
KBO1 121603Z 20005KT 00/M08 A3017 RMK A01 T00041080  RH  053%=      5-min Rain = 0
KBO1 121604Z 20006KT 01/M08 A3017 RMK A01 T00051079  RH  053%=      5-min Rain = 0
KBO1 121605Z 21006KT 01/M08 A3017 RMK A01 T00061078  RH  053%=      5-min Rain = 0
KBO1 121606Z 20006KT 01/M08 A3017 RMK A01 T00071078  RH  053%=      5-min Rain = 0
KBO1 121607Z 21008KT 01/M08 A3016 RMK A01 T00081077  RH  053%=      5-min Rain = 0
KBO1 121608Z 21010KT 01/M08 A3016 RMK A01 T00091076  RH  053%=      5-min Rain = 0
KBO1 121609Z 21009KT 01/M08 A3016 RMK A01 T00091076  RH  053%=      5-min Rain = 0
KBO1 121610Z 20009KT 01/M08 A3016 RMK A01 T00101076  RH  053%=      5-min Rain = 0
KBO1 121611Z 21009KT 01/M08 A3016 RMK A01 T00101076  RH  053%=      5-min Rain = 0
KBO1 121612Z 21009KT 01/M08 A3016 RMK A01 T00111076  RH  053%=      5-min Rain = 0
KBO1 121613Z 22008KT 01/M08 A3016 RMK A01 T00111075  RH  053%=      5-min Rain = 0
KBO1 121614Z 20009KT 01/M07 A3016 RMK A01 T00121074  RH  053%=      5-min Rain = 0
KBO1 121615Z 20009KT 01/M07 A3016 RMK A01 T00141074  RH  052%=      5-min Rain = 0
KBO1 121616Z 20007KT 01/M07 A3016 RMK A01 T00141074  RH  052%=      5-min Rain = 0
KBO1 121617Z 19009KT 02/M07 A3016 RMK A01 T00161072  RH  052%=      5-min Rain = 0
KBO1 121618Z 19008KT 02/M07 A3016 RMK A01 T00171074  RH  051%=      5-min Rain = 0
KBO1 121619Z 21008KT 02/M08 A3016 RMK A01 T00151075  RH  051%=      5-min Rain = 0
KBO1 121620Z 21010KT 02/M07 A3016 RMK A01 T00161073  RH  052%=      5-min Rain = 0
KBO1 121621Z 20008KT 02/M07 A3016 RMK A01 T00161074  RH  052%=      5-min Rain = 0
KBO1 121622Z 21009KT 02/M07 A3016 RMK A01 T00161073  RH  052%=      5-min Rain = 0
KBO1 121623Z 21008KT 02/M07 A3016 RMK A01 T00161073  RH  052%=      5-min Rain = 0
KBO1 121624Z 22007KT 02/M07 A3016 RMK A01 T00161073  RH  052%=      5-min Rain = 0
KBO1 121625Z 21008KT 02/M07 A3016 RMK A01 T00181071  RH  052%=      5-min Rain = 0
KBO1 121626Z 21011KT 02/M07 A3016 RMK A01 T00201071  RH  051%=      5-min Rain = 0
KBO1 121627Z 21010KT 02/M07 A3016 RMK A01 T00201071  RH  051%=      5-min Rain = 0
KBO1 121628Z 22010KT 02/M07 A3016 RMK A01 T00201071  RH  051%=      5-min Rain = 0
KBO1 121629Z 21011KT 02/M07 A3016 RMK A01 T00211071  RH  051%=      5-min Rain = 0
KBO1 121630Z 20009KT 02/M07 A3016 RMK A01 T00221070  RH  051%=      5-min Rain = 0
KBO1 121631Z 21009KT 02/M07 A3016 RMK A01 T00231069  RH  050%=      5-min Rain = 0
KBO1 121632Z 22009KT 03/M07 A3016 RMK A01 T00251069  RH  050%=      5-min Rain = 0
KBO1 121633Z 23007KT 03/M07 A3016 RMK A01 T00261069  RH  050%=      5-min Rain = 0
KBO1 121634Z 23008KT 03/M07 A3016 RMK A01 T00281067  RH  050%=      5-min Rain = 0
KBO1 121635Z 20010KT 03/M07 A3016 RMK A01 T00291068  RH  049%=      5-min Rain = 0
KBO1 121636Z 20009KT 03/M07 A3016 RMK A01 T00281070  RH  048%=      5-min Rain = 0
KBO1 121637Z 22007KT 03/M07 A3016 RMK A01 T00281069  RH  049%=      5-min Rain = 0
KBO1 121638Z 21008KT 03/M07 A3016 RMK A01 T00301068  RH  049%=      5-min Rain = 0
KBO1 121639Z 21009KT 03/M07 A3016 RMK A01 T00311068  RH  048%=      5-min Rain = 0
KBO1 121640Z 22007KT 03/M07 A3016 RMK A01 T00301069  RH  048%=      5-min Rain = 0
KBO1 121641Z 21008KT 03/M07 A3016 RMK A01 T00301069  RH  048%=      5-min Rain = 0
KBO1 121642Z 21009KT 03/M07 A3016 RMK A01 T00291070  RH  048%=      5-min Rain = 0
KBO1 121643Z 20009KT 03/M07 A3016 RMK A01 T00291069  RH  048%=      5-min Rain = 0
KBO1 121644Z 21010KT 03/M07 A3016 RMK A01 T00291069  RH  048%=      5-min Rain = 0
KBO1 121645Z 20010KT 03/M07 A3016 RMK A01 T00291069  RH  049%=      5-min Rain = 0
KBO1 121646Z 22010KT 03/M07 A3016 RMK A01 T00311067  RH  049%=      5-min Rain = 0
KBO1 121647Z 22011KT 03/M07 A3016 RMK A01 T00321068  RH  048%=      5-min Rain = 0
KBO1 121648Z 21012KT 03/M07 A3016 RMK A01 T00311069  RH  048%=      5-min Rain = 0
KBO1 121649Z 21011KT 03/M07 A3015 RMK A01 T00301069  RH  048%=      5-min Rain = 0
KBO1 121650Z 20011KT 03/M07 A3015 RMK A01 T00301069  RH  048%=      5-min Rain = 0
KBO1 121651Z 21010KT 03/M07 A3015 RMK A01 T00311068  RH  048%=      5-min Rain = 0
KBO1 121652Z 22011KT 03/M07 A3015 RMK A01 T00331067  RH  048%=      5-min Rain = 0
KBO1 121653Z 21010KT 03/M07 A3015 RMK A01 T00321068  RH  048%=      5-min Rain = 0
KBO1 121654Z 21010KT 03/M07 A3015 RMK A01 T00331067  RH  048%=      5-min Rain = 0
KBO1 121655Z 21011KT 03/M07 A3015 RMK A01 T00331068  RH  048%=      5-min Rain = 0
KBO1 121656Z 21010KT 03/M07 A3015 RMK A01 T00331067  RH  048%=      5-min Rain = 0
KBO1 121657Z 22010KT 03/M07 A3015 RMK A01 T00341067  RH  048%=      5-min Rain = 0
KBO1 121658Z 21010KT 04/M07 A3015 RMK A01 T00351066  RH  047%=      5-min Rain = 0
KBO1 121659Z 20009KT 04/M07 A3015 RMK A01 T00351067  RH  047%=      5-min Rain = 0
KBO1 121700Z 21008KT 04/M07 A3015 RMK A01 T00361066  RH  047%=      5-min Rain = 0
KBO1 121701Z 20008KT 04/M06 A3015 RMK A01 T00391064  RH  047%=      5-min Rain = 0
KBO1 121702Z 21009KT 04/M07 A3015 RMK A01 T00391065  RH  047%=      5-min Rain = 0
KBO1 121703Z 21010KT 04/M07 A3015 RMK A01 T00401065  RH  046%=      5-min Rain = 0
KBO1 121704Z 20009KT 04/M07 A3015 RMK A01 T00401066  RH  046%=      5-min Rain = 0
KBO1 121705Z 21010KT 04/M06 A3015 RMK A01 T00421064  RH  046%=      5-min Rain = 0
KBO1 121706Z 21010KT 04/M06 A3015 RMK A01 T00441063  RH  046%=      5-min Rain = 0
KBO1 121707Z 21010KT 05/M06 A3014 RMK A01 T00451064  RH  045%=      5-min Rain = 0
KBO1 121708Z 22010KT 05/M07 A3014 RMK A01 T00451066  RH  044%=      5-min Rain = 0
KBO1 121709Z 20010KT 05/M07 A3014 RMK A01 T00461065  RH  044%=      5-min Rain = 0
KBO1 121710Z 19011KT 05/M06 A3014 RMK A01 T00491063  RH  044%=      5-min Rain = 0
KBO1 121711Z 21011KT 05/M06 A3014 RMK A01 T00491064  RH  044%=      5-min Rain = 0
KBO1 121712Z 21012KT 05/M07 A3014 RMK A01 T00481065  RH  044%=      5-min Rain = 0
KBO1 121713Z 21011KT 05/M07 A3014 RMK A01 T00481065  RH  044%=      5-min Rain = 0
KBO1 121714Z 20010KT 05/M06 A3014 RMK A01 T00501064  RH  044%=      5-min Rain = 0
KBO1 121715Z 21010KT 05/M06 A3014 RMK A01 T00521063  RH  043%=      5-min Rain = 0
KBO1 121716Z 21012KT 05/M06 A3014 RMK A01 T00541063  RH  043%=      5-min Rain = 0
KBO1 121717Z 22009KT 06/M06 A3014 RMK A01 T00551064  RH  042%=      5-min Rain = 0
KBO1 121718Z 21009KT 06/M06 A3014 RMK A01 T00551063  RH  042%=      5-min Rain = 0
KBO1 121719Z 21008KT 06/M06 A3014 RMK A01 T00561063  RH  042%=      5-min Rain = 0
KBO1 121720Z 21010KT 06/M06 A3014 RMK A01 T00581063  RH  042%=      5-min Rain = 0
KBO1 121721Z 22009G14KT 06/M07 A3014 RMK A01 T00561066  RH  041%=      5-min Rain = 0
KBO1 121722Z 20008KT 06/M06 A3014 RMK A01 T00561064  RH  042%=      5-min Rain = 0
KBO1 121723Z 19010KT 06/M06 A3014 RMK A01 T00581062  RH  042%=      5-min Rain = 0
KBO1 121724Z 20008KT 06/M06 A3014 RMK A01 T00571064  RH  041%=      5-min Rain = 0
KBO1 121725Z 21008KT 06/M06 A3014 RMK A01 T00561063  RH  042%=      5-min Rain = 0
KBO1 121726Z 21009KT 06/M06 A3015 RMK A01 T00571063  RH  042%=      5-min Rain = 0
KBO1 121727Z 21009KT 06/M06 A3015 RMK A01 T00571063  RH  042%=      5-min Rain = 0
KBO1 121728Z 21008KT 06/M06 A3014 RMK A01 T00571063  RH  042%=      5-min Rain = 0
KBO1 121729Z 20007KT 06/M06 A3014 RMK A01 T00571064  RH  042%=      5-min Rain = 0
KBO1 121730Z 23008KT 06/M06 A3014 RMK A01 T00571064  RH  041%=      5-min Rain = 0
KBO1 121731Z 22011KT 06/M06 A3014 RMK A01 T00571064  RH  041%=      5-min Rain = 0
KBO1 121732Z 22008KT 06/M07 A3014 RMK A01 T00571066  RH  041%=      5-min Rain = 0
KBO1 121733Z 23008KT 06/M07 A3014 RMK A01 T00561066  RH  041%=      5-min Rain = 0
KBO1 121734Z 22009KT 06/M06 A3014 RMK A01 T00591063  RH  041%=      5-min Rain = 0
KBO1 121735Z 22012KT 06/M06 A3013 RMK A01 T00611062  RH  041%=      5-min Rain = 0
KBO1 121736Z 22011KT 06/M06 A3014 RMK A01 T00621063  RH  040%=      5-min Rain = 0
KBO1 121737Z 22010KT 06/M06 A3014 RMK A01 T00611064  RH  040%=      5-min Rain = 0
KBO1 121738Z 23010KT 06/M06 A3014 RMK A01 T00601064  RH  040%=      5-min Rain = 0
KBO1 121739Z 22012KT 06/M06 A3014 RMK A01 T00611064  RH  040%=      5-min Rain = 0
KBO1 121740Z 23011KT 06/M06 A3014 RMK A01 T00621064  RH  040%=      5-min Rain = 0
KBO1 121741Z 21011KT 06/M06 A3013 RMK A01 T00621064  RH  040%=      5-min Rain = 0
KBO1 121742Z 21011KT 06/M06 A3013 RMK A01 T00631063  RH  040%=      5-min Rain = 0
KBO1 121743Z 22009KT 06/M06 A3014 RMK A01 T00631064  RH  040%=      5-min Rain = 0
KBO1 121744Z 24008KT 06/M06 A3014 RMK A01 T00631064  RH  040%=      5-min Rain = 0
KBO1 121745Z 22010KT 06/M06 A3013 RMK A01 T00641062  RH  040%=      5-min Rain = 0
KBO1 121746Z 21010KT 07/M06 A3013 RMK A01 T00651063  RH  039%=      5-min Rain = 0
KBO1 121747Z 22008KT 06/M07 A3013 RMK A01 T00631065  RH  039%=      5-min Rain = 0
KBO1 121748Z 22008KT 06/M06 A3013 RMK A01 T00621064  RH  040%=      5-min Rain = 0
KBO1 121749Z 22008KT 06/M06 A3013 RMK A01 T00631063  RH  040%=      5-min Rain = 0
KBO1 121750Z 23008KT 06/M06 A3013 RMK A01 T00641063  RH  040%=      5-min Rain = 0
KBO1 121751Z 22009KT 07/M06 A3013 RMK A01 T00651063  RH  039%=      5-min Rain = 0
KBO1 121752Z 23011KT 07/M06 A3012 RMK A01 T00651064  RH  039%=      5-min Rain = 0
KBO1 121753Z 20011KT 07/M06 A3012 RMK A01 T00651063  RH  039%=      5-min Rain = 0
KBO1 121754Z 21012KT 07/M06 A3012 RMK A01 T00681061  RH  039%=      5-min Rain = 0
KBO1 121755Z 22011KT 07/M06 A3012 RMK A01 T00711061  RH  039%=      5-min Rain = 0
KBO1 121756Z 22011KT 07/M06 A3012 RMK A01 T00701063  RH  038%=      5-min Rain = 0
KBO1 121757Z 23009KT 07/M06 A3012 RMK A01 T00701062  RH  038%=      5-min Rain = 0
KBO1 121758Z 23011KT 07/M06 A3012 RMK A01 T00701062  RH  038%=      5-min Rain = 0
KBO1 121759Z 22008KT 07/M06 A3012 RMK A01 T00701064  RH  038%=      5-min Rain = 0
KBO1 121800Z 22006KT 07/M06 A3013 RMK A01 T00721062  RH  038%=      5-min Rain = 0
KBO1 121801Z 21005KT 07/M06 A3013 RMK A01 T00721063  RH  038%=      5-min Rain = 0
KBO1 121802Z 20007KT 07/M06 A3013 RMK A01 T00711062  RH  038%=      5-min Rain = 0
KBO1 121803Z 21010KT 07/M06 A3012 RMK A01 T00711062  RH  038%=      5-min Rain = 0
KBO1 121804Z 22009KT 07/M06 A3012 RMK A01 T00721062  RH  038%=      5-min Rain = 0
KBO1 121805Z 22010KT 07/M06 A3012 RMK A01 T00711063  RH  038%=      5-min Rain = 0
KBO1 121806Z 24009KT 07/M06 A3012 RMK A01 T00701063  RH  038%=      5-min Rain = 0
KBO1 121807Z 24009KT 07/M06 A3012 RMK A01 T00701062  RH  038%=      5-min Rain = 0
KBO1 121808Z 22010KT 07/M06 A3012 RMK A01 T00721061  RH  038%=      5-min Rain = 0
KBO1 121809Z 20010KT 07/M06 A3012 RMK A01 T00741061  RH  038%=      5-min Rain = 0
KBO1 121810Z 21009KT 07/M06 A3011 RMK A01 T00741061  RH  038%=      5-min Rain = 0
KBO1 121811Z 21011KT 08/M06 A3011 RMK A01 T00751061  RH  037%=      5-min Rain = 0
KBO1 121812Z 22010KT 08/M06 A3012 RMK A01 T00761061  RH  037%=      5-min Rain = 0
KBO1 121813Z 23007KT 08/M06 A3012 RMK A01 T00761062  RH  037%=      5-min Rain = 0
KBO1 121814Z 21010KT 08/M06 A3011 RMK A01 T00761061  RH  037%=      5-min Rain = 0
KBO1 121815Z 21008KT 08/M06 A3011 RMK A01 T00761061  RH  037%=      5-min Rain = 0
KBO1 121816Z 20008KT 08/M06 A3011 RMK A01 T00751061  RH  037%=      5-min Rain = 0
KBO1 121817Z 23006KT 08/M06 A3011 RMK A01 T00771059  RH  038%=      5-min Rain = 0
KBO1 121818Z 21010KT 08/M06 A3011 RMK A01 T00811058  RH  037%=      5-min Rain = 0
KBO1 121819Z 21009KT 08/M06 A3011 RMK A01 T00801060  RH  036%=      5-min Rain = 0
KBO1 121820Z 21009KT 08/M06 A3011 RMK A01 T00821058  RH  037%=      5-min Rain = 0
KBO1 121821Z 22009KT 08/M06 A3011 RMK A01 T00821059  RH  036%=      5-min Rain = 0
KBO1 121822Z 22005KT 08/M06 A3011 RMK A01 T00841058  RH  036%=      5-min Rain = 0
KBO1 121823Z 23007KT 08/M06 A3011 RMK A01 T00841059  RH  036%=      5-min Rain = 0
KBO1 121824Z 22010KT 08/M06 A3011 RMK A01 T00841060  RH  036%=      5-min Rain = 0
KBO1 121825Z 23008G13KT 09/M06 A3011 RMK A01 T00851059  RH  036%=      5-min Rain = 0
KBO1 121826Z 23007KT 09/M06 A3011 RMK A01 T00881058  RH  035%=      5-min Rain = 0
KBO1 121827Z 22010KT 09/M06 A3011 RMK A01 T00891059  RH  035%=      5-min Rain = 0
KBO1 121828Z 23010KT 09/M06 A301 RMK A01 T00901058  RH  035%=      5-min Rain = 0
KBO1 121829Z 23008KT 09/M06 A301 RMK A01 T00921059  RH  034%=      5-min Rain = 0
KBO1 121830Z 21006KT 09/M06 A301 RMK A01 T00901060  RH  034%=      5-min Rain = 0
KBO1 121831Z 22007KT 09/M06 A301 RMK A01 T00891058  RH  035%=      5-min Rain = 0
KBO1 121832Z 23010KT 09/M06 A301 RMK A01 T00931057  RH  034%=      5-min Rain = 0
KBO1 121833Z 23008KT 10/M06 A301 RMK A01 T00951059  RH  033%=      5-min Rain = 0
KBO1 121834Z 24007KT 09/M06 A301 RMK A01 T00941061  RH  033%=      5-min Rain = 0
KBO1 121835Z 22006KT 09/M06 A301 RMK A01 T00921061  RH  033%=      5-min Rain = 0
KBO1 121836Z 20007KT 09/M06 A301 RMK A01 T00921059  RH  034%=      5-min Rain = 0
KBO1 121837Z 22007KT 09/M06 A301 RMK A01 T00931059  RH  034%=      5-min Rain = 0
KBO1 121838Z 23008KT 09/M06 A301 RMK A01 T00931059  RH  034%=      5-min Rain = 0
KBO1 121839Z 22008KT 09/M06 A301 RMK A01 T00931060  RH  033%=      5-min Rain = 0
KBO1 121840Z 22007KT 09/M06 A301 RMK A01 T00931060  RH  034%=      5-min Rain = 0
KBO1 121841Z 22007KT 09/M06 A3009 RMK A01 T00931060  RH  033%=      5-min Rain = 0
KBO1 121842Z 22008KT 09/M06 A3009 RMK A01 T00921059  RH  034%=      5-min Rain = 0
KBO1 121843Z 23008KT 10/M06 A301 RMK A01 T00961057  RH  034%=      5-min Rain = 0
KBO1 121844Z 22007KT 10/M06 A301 RMK A01 T00991057  RH  033%=      5-min Rain = 0
KBO1 121845Z 23007KT 10/M06 A3009 RMK A01 T00991058  RH  033%=      5-min Rain = 0
KBO1 121846Z 22007KT 10/M06 A3009 RMK A01 T01001057  RH  033%=      5-min Rain = 0
KBO1 121847Z 23010KT 10/M06 A3009 RMK A01 T01021057  RH  032%=      5-min Rain = 0
KBO1 121848Z 25008KT 10/M06 A3009 RMK A01 T01041057  RH  032%=      5-min Rain = 0
KBO1 121849Z 24009KT 10/M06 A3009 RMK A01 T01031059  RH  031%=      5-min Rain = 0
KBO1 121850Z 22007KT 10/M06 A3009 RMK A01 T01021058  RH  032%=      5-min Rain = 0
KBO1 121851Z 23008KT 10/M06 A3009 RMK A01 T01031057  RH  032%=      5-min Rain = 0
KBO1 121852Z 23006KT 10/M06 A3009 RMK A01 T01041057  RH  032%=      5-min Rain = 0
KBO1 121853Z 24008KT 11/M06 A3009 RMK A01 T01051057  RH  032%=      5-min Rain = 0
KBO1 121854Z 24010KT 11/M06 A3009 RMK A01 T01071056  RH  031%=      5-min Rain = 0
KBO1 121855Z 22009KT 11/M06 A3009 RMK A01 T01091057  RH  031%=      5-min Rain = 0
KBO1 121856Z 21007KT 11/M06 A3009 RMK A01 T01051059  RH  031%=      5-min Rain = 0
KBO1 121857Z 21007KT 10/M06 A3009 RMK A01 T01041058  RH  032%=      5-min Rain = 0
KBO1 121858Z 21006KT 10/M06 A3009 RMK A01 T01041057  RH  032%=      5-min Rain = 0
KBO1 121859Z 22007KT 11/M06 A3008 RMK A01 T01081055  RH  031%=      5-min Rain = 0
KBO1 121900Z 23008KT 11/M06 A3008 RMK A01 T01101056  RH  031%=      5-min Rain = 0
KBO1 121901Z 22007KT 11/M06 A3008 RMK A01 T01081058  RH  031%=      5-min Rain = 0
KBO1 121902Z 21008KT 11/M06 A3008 RMK A01 T01081057  RH  031%=      5-min Rain = 0
KBO1 121903Z 24008KT 11/M06 A3008 RMK A01 T01091057  RH  031%=      5-min Rain = 0
KBO1 121904Z 25008KT 11/M06 A3008 RMK A01 T01101057  RH  030%=      5-min Rain = 0
KBO1 121905Z 21006KT 11/M06 A3009 RMK A01 T01141055  RH  030%=      5-min Rain = 0
KBO1 121906Z 22008KT 12/M06 A3008 RMK A01 T01151056  RH  030%=      5-min Rain = 0
KBO1 121907Z 24007KT 12/M06 A3008 RMK A01 T01171055  RH  029%=      5-min Rain = 0
KBO1 121908Z 22010KT 12/M06 A3008 RMK A01 T01161057  RH  029%=      5-min Rain = 0
KBO1 121909Z 21009KT 12/M06 A3008 RMK A01 T01161057  RH  029%=      5-min Rain = 0
KBO1 121910Z 22010KT 12/M06 A3008 RMK A01 T01181055  RH  029%=      5-min Rain = 0
KBO1 121911Z 23010KT 12/M06 A3008 RMK A01 T01191057  RH  029%=      5-min Rain = 0
KBO1 121912Z 23011KT 12/M06 A3008 RMK A01 T01171058  RH  029%=      5-min Rain = 0
KBO1 121913Z 24010KT 12/M06 A3008 RMK A01 T01171057  RH  029%=      5-min Rain = 0
KBO1 121914Z 24010KT 12/M06 A3008 RMK A01 T01181056  RH  029%=      5-min Rain = 0
KBO1 121915Z 25006KT 12/M06 A3008 RMK A01 T01181057  RH  029%=      5-min Rain = 0
KBO1 121916Z 25004KT 12/M06 A3008 RMK A01 T01171056  RH  029%=      5-min Rain = 0
KBO1 121917Z 24008KT 12/M06 A3008 RMK A01 T01181056  RH  029%=      5-min Rain = 0
KBO1 121918Z 24008KT 12/M06 A3008 RMK A01 T01191056  RH  029%=      5-min Rain = 0
KBO1 121919Z 25007KT 12/M06 A3008 RMK A01 T01201055  RH  029%=      5-min Rain = 0
KBO1 121920Z 24005KT 12/M06 A3008 RMK A01 T01211055  RH  029%=      5-min Rain = 0
KBO1 121921Z 24006KT 12/M05 A3008 RMK A01 T01231053  RH  029%=      5-min Rain = 0
KBO1 121922Z 21007KT 13/M05 A3007 RMK A01 T01261053  RH  028%=      5-min Rain = 0
KBO1 121923Z 24008KT 13/M05 A3007 RMK A01 T01261054  RH  028%=      5-min Rain = 0
KBO1 121924Z 23007KT 12/M06 A3007 RMK A01 T01241056  RH  028%=      5-min Rain = 0
KBO1 121925Z 22008KT 12/M06 A3007 RMK A01 T01221056  RH  028%=      5-min Rain = 0
KBO1 121926Z 21009KT 12/M06 A3007 RMK A01 T01231055  RH  029%=      5-min Rain = 0
KBO1 121927Z 21008KT 13/M05 A3007 RMK A01 T01261053  RH  028%=      5-min Rain = 0
KBO1 121928Z 21007KT 13/M06 A3007 RMK A01 T01261055  RH  028%=      5-min Rain = 0
KBO1 121929Z 21007KT 13/M06 A3007 RMK A01 T01261055  RH  028%=      5-min Rain = 0
KBO1 121930Z 22006KT 13/M05 A3007 RMK A01 T01291052  RH  028%=      5-min Rain = 0
KBO1 121931Z 22008KT 13/M05 A3007 RMK A01 T01321052  RH  027%=      5-min Rain = 0
KBO1 121932Z 24005KT 13/M05 A3007 RMK A01 T01301054  RH  027%=      5-min Rain = 0
KBO1 121933Z 23006KT 13/M05 A3007 RMK A01 T01301053  RH  028%=      5-min Rain = 0
KBO1 121934Z 19005KT 13/M05 A3006 RMK A01 T01321053  RH  027%=      5-min Rain = 0
KBO1 121935Z 20005KT 13/M05 A3006 RMK A01 T01321054  RH  027%=      5-min Rain = 0
KBO1 121936Z 18005KT 13/M05 A3006 RMK A01 T01311054  RH  027%=      5-min Rain = 0
KBO1 121937Z 19004KT 13/M05 A3006 RMK A01 T01301054  RH  027%=      5-min Rain = 0
KBO1 121938Z 19004KT 13/M05 A3006 RMK A01 T01301054  RH  027%=      5-min Rain = 0
KBO1 121939Z 23004KT 13/M05 A3006 RMK A01 T01311054  RH  027%=      5-min Rain = 0
KBO1 121940Z 24004KT 13/M05 A3006 RMK A01 T01331053  RH  027%=      5-min Rain = 0
KBO1 121941Z 20004KT 13/M05 A3006 RMK A01 T01331053  RH  027%=      5-min Rain = 0
KBO1 121942Z 20006KT 14/M05 A3006 RMK A01 T01371051  RH  027%=      5-min Rain = 0
KBO1 121943Z 18005KT 14/M05 A3006 RMK A01 T01401051  RH  026%=      5-min Rain = 0
KBO1 121944Z 20005KT 14/M05 A3006 RMK A01 T01401052  RH  026%=      5-min Rain = 0
KBO1 121945Z 22006KT 14/M05 A3006 RMK A01 T01391052  RH  026%=      5-min Rain = 0
KBO1 121946Z 23006KT 14/M05 A3006 RMK A01 T01421054  RH  025%=      5-min Rain = 0
KBO1 121947Z 22007KT 14/M05 A3006 RMK A01 T01431053  RH  025%=      5-min Rain = 0
KBO1 121948Z 22008KT 14/M06 A3006 RMK A01 T01431055  RH  025%=      5-min Rain = 0
KBO1 121949Z 22006KT 15/M05 A3005 RMK A01 T01451053  RH  025%=      5-min Rain = 0
KBO1 121950Z 27004KT 15/M05 A3005 RMK A01 T01471053  RH  025%=      5-min Rain = 0
KBO1 121951Z 25002KT 15/M05 A3005 RMK A01 T01481053  RH  025%=      5-min Rain = 0
KBO1 121952Z 20006KT 15/M05 A3005 RMK A01 T01481053  RH  024%=      5-min Rain = 0
KBO1 121953Z 20003KT 15/M05 A3005 RMK A01 T01481054  RH  024%=      5-min Rain = 0
KBO1 121954Z 25002KT 15/M06 A3005 RMK A01 T01471056  RH  024%=      5-min Rain = 0
KBO1 121955Z 29003KT 15/M06 A3005 RMK A01 T01471056  RH  024%=      5-min Rain = 0
KBO1 121956Z 27004KT 15/M06 A3005 RMK A01 T01461056  RH  024%=      5-min Rain = 0
KBO1 121957Z 27007KT 15/M06 A3005 RMK A01 T01471058  RH  024%=      5-min Rain = 0
KBO1 121958Z 26007KT 15/M06 A3005 RMK A01 T01481061  RH  023%=      5-min Rain = 0
KBO1 121959Z 24006KT 15/M06 A3005 RMK A01 T01481062  RH  023%=      5-min Rain = 0
KBO1 122000Z 23004KT 15/M06 A3005 RMK A01 T01481063  RH  023%=      5-min Rain = 0
KBO1 122001Z 26006KT 15/M06 A3005 RMK A01 T01481063  RH  023%=      5-min Rain = 0
KBO1 122002Z 27006KT 15/M06 A3005 RMK A01 T01501062  RH  023%=      5-min Rain = 0
KBO1 122003Z 29009KT 15/M06 A3005 RMK A01 T01531060  RH  023%=      5-min Rain = 0
KBO1 122004Z 30010KT 15/M06 A3005 RMK A01 T01531061  RH  022%=      5-min Rain = 0
KBO1 122005Z 28010KT 15/M06 A3005 RMK A01 T01541063  RH  022%=      5-min Rain = 0
KBO1 122006Z 27009KT 16/M06 A3005 RMK A01 T01551061  RH  022%=      5-min Rain = 0
KBO1 122007Z 27008KT 16/M06 A3005 RMK A01 T01551061  RH  022%=      5-min Rain = 0
KBO1 122008Z 28007KT 16/M06 A3005 RMK A01 T01551060  RH  022%=      5-min Rain = 0
KBO1 122009Z 29007KT 15/M06 A3005 RMK A01 T01541059  RH  023%=      5-min Rain = 0
KBO1 122010Z 30010KT 16/M06 A3005 RMK A01 T01551056  RH  023%=      5-min Rain = 0
KBO1 122011Z 31008KT 15/M06 A3005 RMK A01 T01541061  RH  022%=      5-min Rain = 0
KBO1 122012Z 31007KT 15/M06 A3005 RMK A01 T01531062  RH  022%=      5-min Rain = 0
KBO1 122013Z 33004KT 15/M06 A3005 RMK A01 T01531059  RH  023%=      5-min Rain = 0
KBO1 122014Z 33005KT 15/M06 A3005 RMK A01 T01531057  RH  023%=      5-min Rain = 0
KBO1 122015Z 32007KT 15/M06 A3005 RMK A01 T01521055  RH  024%=      5-min Rain = 0
KBO1 122016Z 32005KT 15/M05 A3005 RMK A01 T01511054  RH  024%=      5-min Rain = 0
KBO1 122017Z 32008KT 15/M05 A3005 RMK A01 T01521052  RH  024%=      5-min Rain = 0
KBO1 122018Z 33008KT 15/M05 A3005 RMK A01 T01531051  RH  024%=      5-min Rain = 0
KBO1 122019Z 33006KT 15/M05 A3005 RMK A01 T01521052  RH  024%=      5-min Rain = 0
KBO1 122020Z 31005KT 15/M05 A3005 RMK A01 T01511052  RH  024%=      5-min Rain = 0
KBO1 122021Z 32005KT 15/M05 A3005 RMK A01 T01501051  RH  025%=      5-min Rain = 0
KBO1 122022Z 29006KT 15/M05 A3005 RMK A01 T01511052  RH  024%=      5-min Rain = 0
KBO1 122023Z 28005KT 15/M06 A3005 RMK A01 T01521056  RH  023%=      5-min Rain = 0
KBO1 122024Z 32005KT 15/M06 A3005 RMK A01 T01531056  RH  023%=      5-min Rain = 0
KBO1 122025Z 32007KT 15/M05 A3005 RMK A01 T01541053  RH  024%=      5-min Rain = 0
KBO1 122026Z 32006KT 15/M05 A3005 RMK A01 T01531054  RH  024%=      5-min Rain = 0
KBO1 122027Z 33008KT 15/M05 A3005 RMK A01 T01541053  RH  024%=      5-min Rain = 0
KBO1 122028Z 32008KT 16/M05 A3005 RMK A01 T01561054  RH  023%=      5-min Rain = 0
KBO1 122029Z 32007KT 16/M05 A3005 RMK A01 T01551054  RH  023%=      5-min Rain = 0
KBO1 122030Z 32008KT 16/M06 A3005 RMK A01 T01551056  RH  023%=      5-min Rain = 0
KBO1 122031Z 32004KT 16/M06 A3005 RMK A01 T01551057  RH  023%=      5-min Rain = 0
KBO1 122032Z 32006KT 16/M06 A3005 RMK A01 T01551058  RH  022%=      5-min Rain = 0
KBO1 122033Z 30009KT 16/M06 A3005 RMK A01 T01561061  RH  022%=      5-min Rain = 0
KBO1 122034Z 32007KT 16/M07 A3005 RMK A01 T01581065  RH  021%=      5-min Rain = 0
KBO1 122035Z 30004KT 16/M06 A3005 RMK A01 T01571064  RH  021%=      5-min Rain = 0
KBO1 122036Z 31005KT 16/M06 A3005 RMK A01 T01561062  RH  022%=      5-min Rain = 0
KBO1 122037Z 31004KT 16/M06 A3005 RMK A01 T01561062  RH  022%=      5-min Rain = 0
KBO1 122038Z 31004KT 16/M06 A3005 RMK A01 T01551064  RH  022%=      5-min Rain = 0
KBO1 122039Z 33006KT 15/M06 A3005 RMK A01 T01541063  RH  022%=      5-min Rain = 0
KBO1 122040Z 32004KT 15/M06 A3005 RMK A01 T01541063  RH  022%=      5-min Rain = 0
KBO1 122041Z 34005KT 15/M06 A3005 RMK A01 T01521062  RH  022%=      5-min Rain = 0
KBO1 122042Z 32007KT 15/M06 A3005 RMK A01 T01531060  RH  023%=      5-min Rain = 0
KBO1 122043Z 29008KT 16/M06 A3005 RMK A01 T01571061  RH  022%=      5-min Rain = 0
KBO1 122044Z 29007KT 16/M07 A3005 RMK A01 T01591065  RH  021%=      5-min Rain = 0
KBO1 122045Z 29008KT 16/M07 A3005 RMK A01 T01591074  RH  019%=      5-min Rain = 0
KBO1 122046Z 29007KT 16/M07 A3005 RMK A01 T01601074  RH  019%=      5-min Rain = 0
KBO1 122047Z 29006KT 16/M08 A3005 RMK A01 T01601079  RH  019%=      5-min Rain = 0
KBO1 122048Z 30007KT 16/M08 A3005 RMK A01 T01581076  RH  019%=      5-min Rain = 0
KBO1 122049Z 32007KT 16/M08 A3005 RMK A01 T01571075  RH  019%=      5-min Rain = 0
KBO1 122050Z 33006KT 16/M07 A3005 RMK A01 T01581066  RH  021%=      5-min Rain = 0
KBO1 122051Z 32006KT 16/M06 A3005 RMK A01 T01601062  RH  021%=      5-min Rain = 0
KBO1 122052Z 32007KT 16/M06 A3005 RMK A01 T01581061  RH  022%=      5-min Rain = 0
KBO1 122053Z 32006KT 16/M06 A3005 RMK A01 T01571061  RH  022%=      5-min Rain = 0
KBO1 122054Z 32006KT 16/M06 A3005 RMK A01 T01551063  RH  022%=      5-min Rain = 0
KBO1 122055Z 33004KT 15/M06 A3005 RMK A01 T01541064  RH  022%=      5-min Rain = 0
KBO1 122056Z 33005KT 15/M06 A3005 RMK A01 T01521064  RH  022%=      5-min Rain = 0
KBO1 122057Z 32006KT 15/M07 A3005 RMK A01 T01541067  RH  021%=      5-min Rain = 0
KBO1 122058Z 31008KT 16/M07 A3005 RMK A01 T01551074  RH  020%=      5-min Rain = 0
KBO1 122059Z 30007KT 16/M07 A3005 RMK A01 T01551071  RH  020%=      5-min Rain = 0
KBO1 122100Z 29008KT 16/M08 A3005 RMK A01 T01551076  RH  020%=      5-min Rain = 0
KBO1 122101Z 29006KT 16/M08 A3005 RMK A01 T01561084  RH  018%=      5-min Rain = 0
KBO1 122102Z 30005KT 16/M09 A3005 RMK A01 T01561087  RH  018%=      5-min Rain = 0
KBO1 122103Z 29006KT 16/M08 A3005 RMK A01 T01561081  RH  019%=      5-min Rain = 0
KBO1 122104Z 27006KT 16/M08 A3005 RMK A01 T01551079  RH  019%=      5-min Rain = 0
KBO1 122105Z 27004KT 16/M08 A3005 RMK A01 T01561079  RH  019%=      5-min Rain = 0
KBO1 122106Z 32005KT 16/M08 A3005 RMK A01 T01571076  RH  019%=      5-min Rain = 0
KBO1 122107Z 30005KT 16/M07 A3005 RMK A01 T01581073  RH  020%=      5-min Rain = 0
KBO1 122108Z 29008KT 16/M08 A3005 RMK A01 T01591083  RH  018%=      5-min Rain = 0
KBO1 122109Z 31008KT 16/M08 A3005 RMK A01 T01591075  RH  019%=      5-min Rain = 0
KBO1 122110Z 31008KT 16/M07 A3005 RMK A01 T01561072  RH  020%=      5-min Rain = 0
KBO1 122111Z 32007KT 15/M07 A3005 RMK A01 T01521074  RH  020%=      5-min Rain = 0
KBO1 122112Z 34008KT 15/M07 A3005 RMK A01 T01501074  RH  021%=      5-min Rain = 0
KBO1 122113Z 33008KT 15/M08 A3005 RMK A01 T01491081  RH  020%=      5-min Rain = 0
KBO1 122114Z 34005KT 15/M08 A3005 RMK A01 T01481080  RH  020%=      5-min Rain = 0
KBO1 122115Z 32007KT 15/M08 A3005 RMK A01 T01481076  RH  021%=      5-min Rain = 0
KBO1 122116Z 32006KT 15/M08 A3005 RMK A01 T01491077  RH  020%=      5-min Rain = 0
KBO1 122117Z 32006KT 15/M08 A3005 RMK A01 T01501081  RH  019%=      5-min Rain = 0
KBO1 122118Z 32006KT 15/M08 A3005 RMK A01 T01511082  RH  019%=      5-min Rain = 0
KBO1 122119Z 30004KT 15/M08 A3005 RMK A01 T01521083  RH  019%=      5-min Rain = 0
KBO1 122120Z 31007KT 15/M08 A3005 RMK A01 T01541077  RH  020%=      5-min Rain = 0
KBO1 122121Z 34008KT 16/M07 A3005 RMK A01 T01551069  RH  021%=      5-min Rain = 0
KBO1 122122Z 34007KT 16/M06 A3005 RMK A01 T01551062  RH  022%=      5-min Rain = 0
KBO1 122123Z 34007KT 15/M06 A3005 RMK A01 T01541063  RH  022%=      5-min Rain = 0
KBO1 122124Z 34005KT 15/M07 A3005 RMK A01 T01531065  RH  022%=      5-min Rain = 0
KBO1 122125Z 34005KT 15/M06 A3005 RMK A01 T01531063  RH  022%=      5-min Rain = 0
KBO1 122126Z 34005KT 15/M06 A3005 RMK A01 T01531063  RH  022%=      5-min Rain = 0
KBO1 122127Z 33006KT 15/M06 A3005 RMK A01 T01531062  RH  022%=      5-min Rain = 0
KBO1 122128Z 33006KT 15/M06 A3005 RMK A01 T01531064  RH  022%=      5-min Rain = 0
KBO1 122129Z 33006KT 15/M07 A3005 RMK A01 T01531069  RH  021%=      5-min Rain = 0
KBO1 122130Z 33005KT 15/M07 A3005 RMK A01 T01531073  RH  020%=      5-min Rain = 0
KBO1 122131Z 34005KT 15/M08 A3005 RMK A01 T01531075  RH  020%=      5-min Rain = 0
KBO1 122132Z 34006KT 15/M07 A3006 RMK A01 T01531070  RH  021%=      5-min Rain = 0
KBO1 122133Z 33008KT 15/M06 A3005 RMK A01 T01521064  RH  022%=      5-min Rain = 0
KBO1 122134Z 33006KT 15/M06 A3006 RMK A01 T01511063  RH  022%=      5-min Rain = 0
KBO1 122135Z 33005KT 15/M06 A3006 RMK A01 T01501063  RH  022%=      5-min Rain = 0
KBO1 122136Z 33006KT 15/M06 A3006 RMK A01 T01511063  RH  022%=      5-min Rain = 0
KBO1 122137Z 34006KT 15/M06 A3006 RMK A01 T01521064  RH  022%=      5-min Rain = 0
KBO1 122138Z 35005KT 15/M07 A3006 RMK A01 T01521068  RH  021%=      5-min Rain = 0
KBO1 122139Z 35005KT 15/M07 A3006 RMK A01 T01521068  RH  021%=      5-min Rain = 0
KBO1 122140Z 35005KT 15/M07 A3006 RMK A01 T01531068  RH  021%=      5-min Rain = 0
KBO1 122141Z 35004KT 15/M07 A3006 RMK A01 T01541068  RH  021%=      5-min Rain = 0
KBO1 122142Z 33004KT 15/M07 A3006 RMK A01 T01531068  RH  021%=      5-min Rain = 0
KBO1 122143Z 33005KT 15/M07 A3006 RMK A01 T01541068  RH  021%=      5-min Rain = 0
KBO1 122144Z 31007KT 16/M07 A3006 RMK A01 T01551072  RH  020%=      5-min Rain = 0
KBO1 122145Z 32006KT 16/M08 A3006 RMK A01 T01551077  RH  020%=      5-min Rain = 0
KBO1 122146Z 33006KT 15/M08 A3006 RMK A01 T01541077  RH  020%=      5-min Rain = 0
KBO1 122147Z 32008KT 15/M07 A3006 RMK A01 T01541072  RH  020%=      5-min Rain = 0
KBO1 122148Z 32009KT 15/M08 A3006 RMK A01 T01531076  RH  020%=      5-min Rain = 0
KBO1 122149Z 32007KT 15/M08 A3006 RMK A01 T01521080  RH  019%=      5-min Rain = 0
KBO1 122150Z 32007KT 15/M08 A3006 RMK A01 T01521082  RH  019%=      5-min Rain = 0
KBO1 122151Z 31008KT 15/M08 A3006 RMK A01 T01521080  RH  019%=      5-min Rain = 0
KBO1 122152Z 30007KT 15/M08 A3006 RMK A01 T01521082  RH  019%=      5-min Rain = 0
KBO1 122153Z 31007KT 15/M08 A3006 RMK A01 T01531082  RH  019%=      5-min Rain = 0
KBO1 122154Z 33006KT 15/M08 A3006 RMK A01 T01541077  RH  020%=      5-min Rain = 0
KBO1 122155Z 33008KT 16/M08 A3006 RMK A01 T01571078  RH  019%=      5-min Rain = 0
KBO1 122156Z 33008KT 16/M08 A3006 RMK A01 T01561077  RH  019%=      5-min Rain = 0
KBO1 122157Z 33005KT 16/M07 A3006 RMK A01 T01551073  RH  020%=      5-min Rain = 0
KBO1 122158Z 33004KT 15/M07 A3006 RMK A01 T01541071  RH  021%=      5-min Rain = 0
KBO1 122159Z 34005KT 15/M07 A3006 RMK A01 T01541069  RH  021%=      5-min Rain = 0
KBO1 122200Z 32005KT 15/M07 A3006 RMK A01 T01541070  RH  021%=      5-min Rain = 0
KBO1 122201Z 32005KT 15/M07 A3006 RMK A01 T01541073  RH  020%=      5-min Rain = 0
KBO1 122202Z 32005KT 15/M07 A3006 RMK A01 T01531072  RH  020%=      5-min Rain = 0
KBO1 122203Z 31005KT 15/M07 A3006 RMK A01 T01531073  RH  020%=      5-min Rain = 0
KBO1 122204Z 31005KT 15/M07 A3006 RMK A01 T01541074  RH  020%=      5-min Rain = 0
KBO1 122205Z 32004KT 15/M07 A3006 RMK A01 T01541074  RH  020%=      5-min Rain = 0
KBO1 122206Z 32006KT 16/M07 A3006 RMK A01 T01551074  RH  020%=      5-min Rain = 0
KBO1 122207Z 32009KT 16/M08 A3006 RMK A01 T01551082  RH  019%=      5-min Rain = 0
KBO1 122208Z 30009KT 15/M09 A3006 RMK A01 T01541090  RH  018%=      5-min Rain = 0
KBO1 122209Z 30008KT 15/M09 A3006 RMK A01 T01521092  RH  018%=      5-min Rain = 0
KBO1 122210Z 30007KT 15/M09 A3006 RMK A01 T01501092  RH  018%=      5-min Rain = 0
KBO1 122211Z 31006KT 15/M09 A3007 RMK A01 T01491092  RH  018%=      5-min Rain = 0
KBO1 122212Z 32007KT 15/M09 A3007 RMK A01 T01491092  RH  018%=      5-min Rain = 0
KBO1 122213Z 32007KT 15/M09 A3007 RMK A01 T01491090  RH  018%=      5-min Rain = 0
KBO1 122214Z 31007KT 15/M09 A3007 RMK A01 T01491090  RH  018%=      5-min Rain = 0
KBO1 122215Z 31008KT 15/M09 A3007 RMK A01 T01501093  RH  018%=      5-min Rain = 0
KBO1 122216Z 32007KT 15/M09 A3007 RMK A01 T01511093  RH  018%=      5-min Rain = 0
KBO1 122217Z 30008KT 15/M09 A3007 RMK A01 T01511090  RH  018%=      5-min Rain = 0
KBO1 122218Z 31007KT 15/M09 A3007 RMK A01 T01521090  RH  018%=      5-min Rain = 0
KBO1 122219Z 32006KT 15/M09 A3007 RMK A01 T01521088  RH  018%=      5-min Rain = 0
KBO1 122220Z 33007KT 15/M09 A3007 RMK A01 T01531088  RH  018%=      5-min Rain = 0
KBO1 122221Z 33007KT 15/M09 A3007 RMK A01 T01541092  RH  017%=      5-min Rain = 0
KBO1 122222Z 32007KT 15/M09 A3007 RMK A01 T01541092  RH  018%=      5-min Rain = 0
KBO1 122223Z 31007KT 15/M09 A3007 RMK A01 T01531091  RH  018%=      5-min Rain = 0
KBO1 122224Z 31006KT 15/M09 A3007 RMK A01 T01521090  RH  018%=      5-min Rain = 0
KBO1 122225Z 31007KT 15/M09 A3007 RMK A01 T01511090  RH  018%=      5-min Rain = 0
KBO1 122226Z 31007KT 15/M09 A3007 RMK A01 T01521090  RH  018%=      5-min Rain = 0
KBO1 122227Z 31006KT 15/M09 A3007 RMK A01 T01521089  RH  018%=      5-min Rain = 0
KBO1 122228Z 31007KT 15/M09 A3007 RMK A01 T01521090  RH  018%=      5-min Rain = 0
KBO1 122229Z 31007KT 15/M09 A3007 RMK A01 T01521092  RH  018%=      5-min Rain = 0
KBO1 122230Z 31007KT 15/M09 A3007 RMK A01 T01531092  RH  018%=      5-min Rain = 0
KBO1 122231Z 31007KT 15/M09 A3007 RMK A01 T01531094  RH  017%=      5-min Rain = 0
KBO1 122232Z 32007KT 15/M09 A3007 RMK A01 T01521094  RH  017%=      5-min Rain = 0
KBO1 122233Z 31008KT 15/M09 A3008 RMK A01 T01521092  RH  018%=      5-min Rain = 0
KBO1 122234Z 31009KT 15/M09 A3008 RMK A01 T01521090  RH  018%=      5-min Rain = 0
KBO1 122235Z 31008KT 15/M09 A3008 RMK A01 T01511087  RH  018%=      5-min Rain = 0
KBO1 122236Z 31008KT 15/M08 A3008 RMK A01 T01501084  RH  019%=      5-min Rain = 0
KBO1 122237Z 32007KT 15/M09 A3008 RMK A01 T01501085  RH  019%=      5-min Rain = 0
KBO1 122238Z 32006KT 15/M08 A3008 RMK A01 T01491082  RH  019%=      5-min Rain = 0
KBO1 122239Z 33005KT 15/M08 A3008 RMK A01 T01501083  RH  019%=      5-min Rain = 0
KBO1 122240Z 33005KT 15/M09 A3008 RMK A01 T01501086  RH  019%=      5-min Rain = 0
KBO1 122241Z 32005KT 15/M08 A3008 RMK A01 T01491084  RH  019%=      5-min Rain = 0
KBO1 122242Z 33005KT 15/M08 A3008 RMK A01 T01491083  RH  019%=      5-min Rain = 0
KBO1 122243Z 33005KT 15/M08 A3008 RMK A01 T01501081  RH  019%=      5-min Rain = 0
KBO1 122244Z 33004KT 15/M08 A3008 RMK A01 T01501081  RH  020%=      5-min Rain = 0
KBO1 122245Z 32003KT 15/M08 A3008 RMK A01 T01491080  RH  020%=      5-min Rain = 0
KBO1 122246Z 33003KT 15/M08 A3008 RMK A01 T01491080  RH  020%=      5-min Rain = 0
KBO1 122247Z 31003KT 15/M08 A3007 RMK A01 T01491080  RH  020%=      5-min Rain = 0
KBO1 122248Z 31004KT 15/M08 A3007 RMK A01 T01501080  RH  020%=      5-min Rain = 0
KBO1 122249Z 30003KT 15/M08 A3007 RMK A01 T01501081  RH  020%=      5-min Rain = 0
KBO1 122250Z 32004KT 15/M08 A3007 RMK A01 T01501082  RH  019%=      5-min Rain = 0
KBO1 122251Z 32003KT 15/M08 A3007 RMK A01 T01501083  RH  019%=      5-min Rain = 0
KBO1 122252Z 32003KT 15/M09 A3007 RMK A01 T01501085  RH  019%=      5-min Rain = 0
KBO1 122253Z 32004KT 15/M09 A3007 RMK A01 T01501086  RH  019%=      5-min Rain = 0
KBO1 122254Z 31005KT 15/M09 A3007 RMK A01 T01491088  RH  019%=      5-min Rain = 0
KBO1 122255Z 34006KT 15/M09 A3007 RMK A01 T01481086  RH  019%=      5-min Rain = 0
KBO1 122256Z 34003KT 15/M09 A3008 RMK A01 T01461086  RH  019%=      5-min Rain = 0
KBO1 122257Z 32003KT 15/M09 A3008 RMK A01 T01451086  RH  019%=      5-min Rain = 0
KBO1 122258Z 32005KT 14/M09 A3008 RMK A01 T01441085  RH  020%=      5-min Rain = 0
KBO1 122259Z 33004KT 14/M08 A3008 RMK A01 T01441083  RH  020%=      5-min Rain = 0
KBO1 122300Z 33004KT 14/M08 A3008 RMK A01 T01431083  RH  020%=      5-min Rain = 0
KBO1 122301Z 32004KT 14/M08 A3008 RMK A01 T01431083  RH  020%=      5-min Rain = 0
KBO1 122302Z 32004KT 14/M08 A3008 RMK A01 T01431082  RH  020%=      5-min Rain = 0
KBO1 122303Z 33003KT 14/M08 A3008 RMK A01 T01411084  RH  020%=      5-min Rain = 0
KBO1 122304Z 34004KT 14/M08 A3008 RMK A01 T01401084  RH  020%=      5-min Rain = 0
KBO1 122305Z 34003KT 14/M09 A3008 RMK A01 T01381086  RH  020%=      5-min Rain = 0
KBO1 122306Z 34003KT 14/M09 A3008 RMK A01 T01361086  RH  021%=      5-min Rain = 0
KBO1 122307Z 33003KT 14/M09 A3008 RMK A01 T01351086  RH  021%=      5-min Rain = 0
KBO1 122308Z 33003KT 13/M09 A3008 RMK A01 T01331086  RH  021%=      5-min Rain = 0
KBO1 122309Z 33003KT 13/M09 A3008 RMK A01 T01311086  RH  021%=      5-min Rain = 0
KBO1 122310Z 33003KT 13/M09 A3009 RMK A01 T01301086  RH  021%=      5-min Rain = 0
KBO1 122311Z 33003KT 13/M09 A3009 RMK A01 T01291087  RH  021%=      5-min Rain = 0
KBO1 122312Z 34003KT 13/M09 A3009 RMK A01 T01281087  RH  022%=      5-min Rain = 0
KBO1 122313Z 34003KT 13/M09 A3009 RMK A01 T01271087  RH  022%=      5-min Rain = 0
KBO1 122314Z 33003KT 13/M09 A3009 RMK A01 T01261087  RH  022%=      5-min Rain = 0
KBO1 122315Z 33003KT 13/M09 A3009 RMK A01 T01261085  RH  022%=      5-min Rain = 0
KBO1 122316Z 33003KT 13/M09 A3009 RMK A01 T01261085  RH  022%=      5-min Rain = 0
KBO1 122317Z 33003KT 13/M08 A3009 RMK A01 T01251084  RH  022%=      5-min Rain = 0
KBO1 122318Z 33003KT 12/M08 A3009 RMK A01 T01241084  RH  022%=      5-min Rain = 0
KBO1 122319Z 33002KT 12/M08 A3009 RMK A01 T01241084  RH  023%=      5-min Rain = 0
KBO1 122320Z 33002KT 13/M08 A3009 RMK A01 T01251082  RH  023%=      5-min Rain = 0
KBO1 122321Z 33002KT 13/M08 A3009 RMK A01 T01261082  RH  023%=      5-min Rain = 0
KBO1 122322Z 33002KT 13/M08 A3009 RMK A01 T01281081  RH  023%=      5-min Rain = 0
KBO1 122323Z 33002KT 13/M08 A3009 RMK A01 T01281081  RH  022%=      5-min Rain = 0
KBO1 122324Z 33002KT 13/M08 A3009 RMK A01 T01281080  RH  023%=      5-min Rain = 0
KBO1 122325Z 34002KT 13/M08 A3009 RMK A01 T01281080  RH  023%=      5-min Rain = 0
KBO1 122326Z 34002KT 13/M08 A3009 RMK A01 T01281080  RH  023%=      5-min Rain = 0
KBO1 122327Z 34002KT 13/M08 A3009 RMK A01 T01281079  RH  023%=      5-min Rain = 0
KBO1 122328Z 34003KT 13/M08 A3009 RMK A01 T01291078  RH  023%=      5-min Rain = 0
KBO1 122329Z 35003KT 13/M08 A3009 RMK A01 T01301078  RH  023%=      5-min Rain = 0
KBO1 122330Z 35003KT 13/M08 A3009 RMK A01 T01301078  RH  023%=      5-min Rain = 0
KBO1 122331Z 00003KT 13/M08 A301 RMK A01 T01291079  RH  023%=      5-min Rain = 0
KBO1 122332Z 00004KT 13/M08 A301 RMK A01 T01271080  RH  023%=      5-min Rain = 0
KBO1 122333Z 00005KT 13/M08 A301 RMK A01 T01251081  RH  023%=      5-min Rain = 0
KBO1 122334Z 00005KT 12/M08 A301 RMK A01 T01231081  RH  023%=      5-min Rain = 0
KBO1 122335Z 00005KT 12/M08 A301 RMK A01 T01211081  RH  024%=      5-min Rain = 0
KBO1 122336Z 01005KT 12/M08 A301 RMK A01 T01191080  RH  024%=      5-min Rain = 0
KBO1 122337Z 01005KT 12/M08 A301 RMK A01 T01181080  RH  024%=      5-min Rain = 0
KBO1 122338Z 01005KT 12/M08 A301 RMK A01 T01161080  RH  024%=      5-min Rain = 0
KBO1 122339Z 01005KT 12/M08 A301 RMK A01 T01151081  RH  025%=      5-min Rain = 0
KBO1 122340Z 01006KT 11/M08 A301 RMK A01 T01141081  RH  025%=      5-min Rain = 0
KBO1 122341Z 01006KT 11/M08 A301 RMK A01 T01131080  RH  025%=      5-min Rain = 0
KBO1 122342Z 02006KT 11/M08 A301 RMK A01 T01131080  RH  025%=      5-min Rain = 0
KBO1 122343Z 02006KT 11/M08 A3011 RMK A01 T01121080  RH  025%=      5-min Rain = 0
KBO1 122344Z 02006KT 11/M08 A3011 RMK A01 T01121079  RH  025%=      5-min Rain = 0
KBO1 122345Z 02006KT 11/M08 A3011 RMK A01 T01111079  RH  026%=      5-min Rain = 0
KBO1 122346Z 01007KT 11/M08 A3011 RMK A01 T01111078  RH  026%=      5-min Rain = 0
KBO1 122347Z 02007KT 11/M08 A3011 RMK A01 T01111078  RH  026%=      5-min Rain = 0
KBO1 122348Z 02007KT 11/M08 A3011 RMK A01 T01111077  RH  026%=      5-min Rain = 0
KBO1 122349Z 02007KT 11/M08 A3011 RMK A01 T01101077  RH  026%=      5-min Rain = 0
KBO1 122350Z 02008KT 11/M08 A3011 RMK A01 T01101076  RH  026%=      5-min Rain = 0
KBO1 122351Z 02008KT 11/M08 A3011 RMK A01 T01091076  RH  027%=      5-min Rain = 0
KBO1 122352Z 02008KT 11/M08 A3011 RMK A01 T01091075  RH  027%=      5-min Rain = 0
KBO1 122353Z 02008KT 11/M08 A3011 RMK A01 T01081075  RH  027%=      5-min Rain = 0
KBO1 122354Z 02008KT 11/M08 A3011 RMK A01 T01071075  RH  027%=      5-min Rain = 0
KBO1 122355Z 02008KT 11/M07 A3011 RMK A01 T01071074  RH  027%=      5-min Rain = 0
KBO1 122356Z 02008KT 11/M07 A3011 RMK A01 T01071073  RH  028%=      5-min Rain = 0
KBO1 122357Z 02008KT 11/M07 A3012 RMK A01 T01061073  RH  028%=      5-min Rain = 0
KBO1 122358Z 03008KT 11/M07 A3012 RMK A01 T01051073  RH  028%=      5-min Rain = 0
KBO1 122359Z 03008KT 11/M07 A3012 RMK A01 T01051072  RH  028%=      5-min Rain = 0
KBO1 130000Z 03008KT 11/M07 A3012 RMK A01 T01051072  RH  028%=      5-min Rain = 0
KBO1 130001Z 04008KT 10/M07 A3012 RMK A01 T01041072  RH  028%=      5-min Rain = 0
KBO1 130002Z 05010KT 10/M07 A3013 RMK A01 T01041071  RH  028%=      5-min Rain = 0
KBO1 130003Z 06010KT 10/M07 A3013 RMK A01 T01031071  RH  029%=      5-min Rain = 0
KBO1 130004Z 05011KT 10/M07 A3013 RMK A01 T01011073  RH  029%=      5-min Rain = 0
KBO1 130005Z 06010KT 10/M07 A3013 RMK A01 T01011072  RH  029%=      5-min Rain = 0
KBO1 130006Z 06010KT 10/M07 A3013 RMK A01 T01001073  RH  029%=      5-min Rain = 0
KBO1 130007Z 06008KT 10/M07 A3013 RMK A01 T01011072  RH  029%=      5-min Rain = 0
KBO1 130008Z 08008KT 10/M07 A3013 RMK A01 T01031070  RH  029%=      5-min Rain = 0
KBO1 130009Z 07009KT 11/M07 A3013 RMK A01 T01051069  RH  029%=      5-min Rain = 0
KBO1 130010Z 06009KT 11/M07 A3013 RMK A01 T01061066  RH  029%=      5-min Rain = 0
KBO1 130011Z 07009KT 11/M07 A3013 RMK A01 T01071066  RH  029%=      5-min Rain = 0
KBO1 130012Z 08009KT 11/M07 A3013 RMK A01 T01061067  RH  029%=      5-min Rain = 0
KBO1 130013Z 08011KT 11/M07 A3013 RMK A01 T01061066  RH  029%=      5-min Rain = 0
KBO1 130014Z 09012KT 11/M07 A3013 RMK A01 T01061065  RH  029%=      5-min Rain = 0
KBO1 130015Z 09011KT 11/M06 A3013 RMK A01 T01071064  RH  030%=      5-min Rain = 0
KBO1 130016Z 09011KT 11/M06 A3013 RMK A01 T01071063  RH  030%=      5-min Rain = 0
KBO1 130017Z 09013KT 11/M06 A3014 RMK A01 T01071062  RH  030%=      5-min Rain = 0
KBO1 130018Z 10013KT 11/M06 A3014 RMK A01 T01071064  RH  029%=      5-min Rain = 0
KBO1 130019Z 10014KT 11/M07 A3014 RMK A01 T01061066  RH  029%=      5-min Rain = 0
KBO1 130020Z 10015KT 11/M07 A3014 RMK A01 T01051067  RH  029%=      5-min Rain = 0
KBO1 130021Z 10014KT 11/M07 A3014 RMK A01 T01051067  RH  029%=      5-min Rain = 0
KBO1 130022Z 09014KT 11/M07 A3014 RMK A01 T01051067  RH  029%=      5-min Rain = 0
KBO1 130023Z 09013KT 11/M07 A3014 RMK A01 T01051066  RH  030%=      5-min Rain = 0
KBO1 130024Z 10011KT 10/M07 A3014 RMK A01 T01031066  RH  030%=      5-min Rain = 0
KBO1 130025Z 10011KT 10/M07 A3014 RMK A01 T01021066  RH  030%=      5-min Rain = 0
KBO1 130026Z 10010KT 10/M07 A3014 RMK A01 T01001066  RH  030%=      5-min Rain = 0
KBO1 130027Z 10010KT 10/M07 A3014 RMK A01 T00981067  RH  031%=      5-min Rain = 0
KBO1 130028Z 10011KT 10/M07 A3015 RMK A01 T00981066  RH  031%=      5-min Rain = 0
KBO1 130029Z 09011KT 10/M07 A3015 RMK A01 T00971066  RH  031%=      5-min Rain = 0
KBO1 130030Z 10012KT 10/M07 A3015 RMK A01 T00971066  RH  031%=      5-min Rain = 0
KBO1 130031Z 09012KT 10/M07 A3015 RMK A01 T00961067  RH  031%=      5-min Rain = 0
KBO1 130032Z 09011KT 10/M07 A3015 RMK A01 T00951067  RH  031%=      5-min Rain = 0
KBO1 130033Z 09009KT 10/M07 A3015 RMK A01 T00951067  RH  031%=      5-min Rain = 0
KBO1 130034Z 09010KT 09/M07 A3015 RMK A01 T00941067  RH  031%=      5-min Rain = 0
KBO1 130035Z 09010KT 09/M07 A3016 RMK A01 T00931067  RH  032%=      5-min Rain = 0
KBO1 130036Z 08008KT 09/M07 A3016 RMK A01 T00921068  RH  032%=      5-min Rain = 0
KBO1 130037Z 08008KT 09/M07 A3016 RMK A01 T00911068  RH  032%=      5-min Rain = 0
KBO1 130038Z 09007KT 09/M07 A3016 RMK A01 T00901068  RH  032%=      5-min Rain = 0
KBO1 130039Z 09007KT 09/M07 A3016 RMK A01 T00881068  RH  032%=      5-min Rain = 0
KBO1 130040Z 08008KT 09/M07 A3016 RMK A01 T00871068  RH  033%=      5-min Rain = 0
KBO1 130041Z 08007KT 09/M07 A3016 RMK A01 T00871068  RH  033%=      5-min Rain = 0
KBO1 130042Z 09007KT 09/M07 A3016 RMK A01 T00861068  RH  033%=      5-min Rain = 0
KBO1 130043Z 09007KT 09/M07 A3016 RMK A01 T00851069  RH  033%=      5-min Rain = 0
KBO1 130044Z 09008KT 08/M07 A3017 RMK A01 T00841069  RH  033%=      5-min Rain = 0
KBO1 130045Z 09009KT 08/M07 A3017 RMK A01 T00841069  RH  033%=      5-min Rain = 0
KBO1 130046Z 09009KT 08/M07 A3017 RMK A01 T00841069  RH  033%=      5-min Rain = 0
KBO1 130047Z 09009KT 08/M07 A3017 RMK A01 T00831070  RH  033%=      5-min Rain = 0
KBO1 130048Z 08009KT 08/M07 A3017 RMK A01 T00821070  RH  033%=      5-min Rain = 0
KBO1 130049Z 07008KT 08/M07 A3018 RMK A01 T00811071  RH  033%=      5-min Rain = 0
KBO1 130050Z 06008KT 08/M07 A3018 RMK A01 T00811071  RH  033%=      5-min Rain = 0
KBO1 130051Z 05008KT 08/M07 A3018 RMK A01 T00801071  RH  034%=      5-min Rain = 0
KBO1 130052Z 05007KT 08/M07 A3019 RMK A01 T00801072  RH  033%=      5-min Rain = 0
KBO1 130053Z 08007KT 08/M07 A3019 RMK A01 T00801072  RH  033%=      5-min Rain = 0
KBO1 130054Z 08005KT 08/M07 A3019 RMK A01 T00791073  RH  033%=      5-min Rain = 0
KBO1 130055Z 07006KT 08/M07 A3019 RMK A01 T00801072  RH  033%=      5-min Rain = 0
KBO1 130056Z 07007KT 08/M07 A3019 RMK A01 T00791073  RH  033%=      5-min Rain = 0
KBO1 130057Z 07009KT 08/M07 A3019 RMK A01 T00781073  RH  033%=      5-min Rain = 0
KBO1 130058Z 06011KT 08/M07 A3019 RMK A01 T00771074  RH  033%=      5-min Rain = 0
KBO1 130059Z 07011KT 08/M07 A3019 RMK A01 T00761074  RH  034%=      5-min Rain = 0
KBO1 130100Z 06011KT 08/M08 A3019 RMK A01 T00751075  RH  034%=      5-min Rain = 0
KBO1 130101Z 07013KT 07/M08 A3019 RMK A01 T00741075  RH  034%=      5-min Rain = 0
KBO1 130102Z 07012KT 07/M08 A3019 RMK A01 T00741075  RH  034%=      5-min Rain = 0
KBO1 130103Z 08015KT 07/M08 A3019 RMK A01 T00731075  RH  034%=      5-min Rain = 0
KBO1 130104Z 08015KT 07/M08 A3019 RMK A01 T00721076  RH  034%=      5-min Rain = 0
KBO1 130105Z 08015KT 07/M08 A3019 RMK A01 T00711077  RH  034%=      5-min Rain = 0
KBO1 130106Z 08014KT 07/M08 A3019 RMK A01 T00701078  RH  034%=      5-min Rain = 0
KBO1 130107Z 08013KT 07/M08 A302 RMK A01 T00701078  RH  034%=      5-min Rain = 0
KBO1 130108Z 08016KT 07/M08 A302 RMK A01 T00691079  RH  034%=      5-min Rain = 0
KBO1 130109Z 08015KT 07/M08 A302 RMK A01 T00691079  RH  034%=      5-min Rain = 0
KBO1 130110Z 07015KT 07/M08 A302 RMK A01 T00691079  RH  034%=      5-min Rain = 0
KBO1 130111Z 07013KT 07/M08 A302 RMK A01 T00681079  RH  034%=      5-min Rain = 0
KBO1 130112Z 07013KT 07/M08 A302 RMK A01 T00671080  RH  034%=      5-min Rain = 0
KBO1 130113Z 07012KT 07/M08 A302 RMK A01 T00651081  RH  034%=      5-min Rain = 0
KBO1 130114Z 08014KT 07/M08 A302 RMK A01 T00651081  RH  035%=      5-min Rain = 0
KBO1 130115Z 08016KT 06/M08 A302 RMK A01 T00641081  RH  035%=      5-min Rain = 0
KBO1 130116Z 09017KT 06/M08 A302 RMK A01 T00641082  RH  034%=      5-min Rain = 0
KBO1 130117Z 10016KT 07/M08 A302 RMK A01 T00651083  RH  034%=      5-min Rain = 0
KBO1 130118Z 08016KT 07/M08 A302 RMK A01 T00661083  RH  033%=      5-min Rain = 0
KBO1 130119Z 07014G19KT 07/M08 A302 RMK A01 T00671084  RH  033%=      5-min Rain = 0
KBO1 130120Z 07013KT 07/M09 A302 RMK A01 T00661085  RH  033%=      5-min Rain = 0
KBO1 130121Z 07014KT 06/M09 A302 RMK A01 T00631085  RH  034%=      5-min Rain = 0
KBO1 130122Z 08013KT 06/M09 A302 RMK A01 T00621085  RH  034%=      5-min Rain = 0
KBO1 130123Z 09012KT 06/M09 A302 RMK A01 T00611085  RH  034%=      5-min Rain = 0
KBO1 130124Z 09014KT 06/M09 A302 RMK A01 T00611085  RH  034%=      5-min Rain = 0
KBO1 130125Z 08014KT 06/M09 A302 RMK A01 T00601086  RH  034%=      5-min Rain = 0
KBO1 130126Z 09014KT 06/M09 A302 RMK A01 T00601086  RH  034%=      5-min Rain = 0
KBO1 130127Z 09014KT 06/M09 A3021 RMK A01 T00591086  RH  034%=      5-min Rain = 0
KBO1 130128Z 09015KT 06/M09 A302 RMK A01 T00581086  RH  035%=      5-min Rain = 0
KBO1 130129Z 09014KT 06/M09 A302 RMK A01 T00581086  RH  035%=      5-min Rain = 0
KBO1 130130Z 09014KT 06/M09 A3021 RMK A01 T00581086  RH  035%=      5-min Rain = 0
KBO1 130131Z 09015KT 06/M09 A3021 RMK A01 T00581087  RH  035%=      5-min Rain = 0
KBO1 130132Z 09014KT 06/M09 A3021 RMK A01 T00581087  RH  035%=      5-min Rain = 0
KBO1 130133Z 09013KT 06/M09 A3021 RMK A01 T00571087  RH  035%=      5-min Rain = 0
KBO1 130134Z 09013KT 06/M09 A3021 RMK A01 T00571088  RH  035%=      5-min Rain = 0
KBO1 130135Z 09012KT 06/M09 A3021 RMK A01 T00561088  RH  035%=      5-min Rain = 0
KBO1 130136Z 09012KT 06/M09 A3021 RMK A01 T00551088  RH  035%=      5-min Rain = 0
KBO1 130137Z 09012KT 06/M09 A3022 RMK A01 T00551088  RH  035%=      5-min Rain = 0
KBO1 130138Z 09011KT 05/M09 A3022 RMK A01 T00541088  RH  035%=      5-min Rain = 0
KBO1 130139Z 09012KT 05/M09 A3022 RMK A01 T00541088  RH  035%=      5-min Rain = 0
KBO1 130140Z 10011KT 05/M09 A3022 RMK A01 T00531088  RH  035%=      5-min Rain = 0
KBO1 130141Z 10011KT 05/M09 A3022 RMK A01 T00531088  RH  035%=      5-min Rain = 0
KBO1 130142Z 10010KT 05/M09 A3022 RMK A01 T00531088  RH  035%=      5-min Rain = 0
KBO1 130143Z 10010KT 05/M09 A3023 RMK A01 T00531088  RH  035%=      5-min Rain = 0
KBO1 130144Z 10010KT 05/M09 A3023 RMK A01 T00531088  RH  035%=      5-min Rain = 0
KBO1 130145Z 11011KT 05/M09 A3023 RMK A01 T00531088  RH  035%=      5-min Rain = 0
KBO1 130146Z 11012KT 05/M09 A3023 RMK A01 T00541088  RH  035%=      5-min Rain = 0
KBO1 130147Z 11010KT 05/M09 A3023 RMK A01 T00541088  RH  035%=      5-min Rain = 0
KBO1 130148Z 11012KT 05/M09 A3023 RMK A01 T00541088  RH  035%=      5-min Rain = 0
KBO1 130149Z 11010KT 06/M09 A3023 RMK A01 T00551088  RH  035%=      5-min Rain = 0
KBO1 130150Z 10011KT 06/M09 A3023 RMK A01 T00551088  RH  035%=      5-min Rain = 0
KBO1 130151Z 10011KT 05/M09 A3024 RMK A01 T00541089  RH  035%=      5-min Rain = 0
KBO1 130152Z 10012KT 05/M09 A3024 RMK A01 T00541089  RH  035%=      5-min Rain = 0
KBO1 130153Z 10010KT 05/M09 A3024 RMK A01 T00541089  RH  035%=      5-min Rain = 0
KBO1 130154Z 10011KT 05/M09 A3024 RMK A01 T00541089  RH  035%=      5-min Rain = 0
KBO1 130155Z 11010KT 05/M09 A3024 RMK A01 T00531089  RH  035%=      5-min Rain = 0
KBO1 130156Z 11012KT 05/M09 A3024 RMK A01 T00531089  RH  035%=      5-min Rain = 0
KBO1 130157Z 11011KT 05/M09 A3024 RMK A01 T00531089  RH  035%=      5-min Rain = 0
KBO1 130158Z 11012KT 05/M09 A3024 RMK A01 T00531089  RH  035%=      5-min Rain = 0
KBO1 130159Z 10011KT 05/M09 A3025 RMK A01 T00531089  RH  035%=      5-min Rain = 0
KBO1 130200Z 10010KT 05/M09 A3025 RMK A01 T00531089  RH  035%=      5-min Rain = 0
KBO1 130201Z 10010KT 05/M09 A3025 RMK A01 T00521090  RH  035%=      5-min Rain = 0
KBO1 130202Z 10011KT 05/M09 A3025 RMK A01 T00521090  RH  035%=      5-min Rain = 0
KBO1 130203Z 11011KT 05/M09 A3025 RMK A01 T00521089  RH  035%=      5-min Rain = 0
KBO1 130204Z 11011KT 05/M09 A3025 RMK A01 T00521090  RH  035%=      5-min Rain = 0
KBO1 130205Z 11011KT 05/M09 A3025 RMK A01 T00521090  RH  035%=      5-min Rain = 0
KBO1 130206Z 10011KT 05/M09 A3025 RMK A01 T00521090  RH  035%=      5-min Rain = 0
KBO1 130207Z 09010KT 05/M09 A3026 RMK A01 T00521090  RH  035%=      5-min Rain = 0
KBO1 130208Z 08008KT 05/M09 A3026 RMK A01 T00511090  RH  035%=      5-min Rain = 0
KBO1 130209Z 08009KT 05/M09 A3026 RMK A01 T00501090  RH  035%=      5-min Rain = 0
KBO1 130210Z 09010KT 05/M09 A3026 RMK A01 T00501091  RH  035%=      5-min Rain = 0
KBO1 130211Z 10011KT 05/M09 A3026 RMK A01 T00501091  RH  036%=      5-min Rain = 0
KBO1 130212Z 11010KT 05/M09 A3026 RMK A01 T00491091  RH  035%=      5-min Rain = 0
KBO1 130213Z 11011KT 05/M09 A3026 RMK A01 T00491091  RH  035%=      5-min Rain = 0
KBO1 130214Z 11011KT 05/M09 A3026 RMK A01 T00501091  RH  035%=      5-min Rain = 0
KBO1 130215Z 11009KT 05/M09 A3026 RMK A01 T00491092  RH  035%=      5-min Rain = 0
KBO1 130216Z 11009KT 05/M09 A3026 RMK A01 T00491092  RH  035%=      5-min Rain = 0
KBO1 130217Z 11010KT 05/M09 A3026 RMK A01 T00481092  RH  035%=      5-min Rain = 0
KBO1 130218Z 10010KT 05/M09 A3026 RMK A01 T00471092  RH  036%=      5-min Rain = 0
KBO1 130219Z 10011KT 05/M09 A3026 RMK A01 T00471093  RH  036%=      5-min Rain = 0
KBO1 130220Z 11010KT 05/M09 A3026 RMK A01 T00461093  RH  036%=      5-min Rain = 0
KBO1 130221Z 11011KT 05/M09 A3026 RMK A01 T00451093  RH  036%=      5-min Rain = 0
KBO1 130222Z 10010KT 04/M09 A3026 RMK A01 T00441093  RH  036%=      5-min Rain = 0
KBO1 130223Z 10010KT 05/M09 A3027 RMK A01 T00451093  RH  036%=      5-min Rain = 0
KBO1 130224Z 10010KT 04/M09 A3027 RMK A01 T00441093  RH  036%=      5-min Rain = 0
KBO1 130225Z 10010KT 04/M09 A3027 RMK A01 T00421094  RH  036%=      5-min Rain = 0
KBO1 130226Z 11010KT 04/M09 A3027 RMK A01 T00411094  RH  037%=      5-min Rain = 0
KBO1 130227Z 11009KT 04/M09 A3027 RMK A01 T00401094  RH  037%=      5-min Rain = 0
KBO1 130228Z 11009KT 04/M09 A3027 RMK A01 T00391094  RH  037%=      5-min Rain = 0
KBO1 130229Z 11009KT 04/M10 A3027 RMK A01 T00381095  RH  037%=      5-min Rain = 0
KBO1 130230Z 11009KT 04/M10 A3027 RMK A01 T00361095  RH  038%=      5-min Rain = 0
KBO1 130231Z 11008KT 04/M10 A3027 RMK A01 T00351095  RH  038%=      5-min Rain = 0
KBO1 130232Z 11008KT 03/M10 A3027 RMK A01 T00341095  RH  038%=      5-min Rain = 0
KBO1 130233Z 10008KT 03/M10 A3028 RMK A01 T00331096  RH  038%=      5-min Rain = 0
KBO1 130234Z 11007KT 03/M10 A3028 RMK A01 T00321096  RH  039%=      5-min Rain = 0
KBO1 130235Z 11007KT 03/M10 A3028 RMK A01 T00311097  RH  039%=      5-min Rain = 0
KBO1 130236Z 11007KT 03/M10 A3028 RMK A01 T00291097  RH  039%=      5-min Rain = 0
KBO1 130237Z 10007KT 03/M10 A3028 RMK A01 T00291096  RH  039%=      5-min Rain = 0
KBO1 130238Z 10008KT 03/M10 A3028 RMK A01 T00281096  RH  040%=      5-min Rain = 0
KBO1 130239Z 10009KT 03/M10 A3028 RMK A01 T00281095  RH  040%=      5-min Rain = 0
KBO1 130240Z 10009KT 03/M09 A3028 RMK A01 T00301094  RH  040%=      5-min Rain = 0
KBO1 130241Z 10008KT 03/M09 A3028 RMK A01 T00301094  RH  039%=      5-min Rain = 0
KBO1 130242Z 10009KT 03/M10 A3029 RMK A01 T00301095  RH  039%=      5-min Rain = 0
KBO1 130243Z 10009KT 03/M10 A3029 RMK A01 T00301095  RH  039%=      5-min Rain = 0
KBO1 130244Z 11009KT 03/M10 A3029 RMK A01 T00291096  RH  040%=      5-min Rain = 0
KBO1 130245Z 11009KT 03/M10 A3029 RMK A01 T00281096  RH  040%=      5-min Rain = 0
KBO1 130246Z 12008KT 03/M10 A3029 RMK A01 T00281096  RH  040%=      5-min Rain = 0
KBO1 130247Z 11008KT 03/M10 A3029 RMK A01 T00281095  RH  040%=      5-min Rain = 0
KBO1 130248Z 11008KT 03/M10 A3029 RMK A01 T00271096  RH  040%=      5-min Rain = 0
KBO1 130249Z 11007KT 03/M10 A3029 RMK A01 T00261096  RH  040%=      5-min Rain = 0
KBO1 130250Z 10006KT 03/M10 A3029 RMK A01 T00261095  RH  040%=      5-min Rain = 0
KBO1 130251Z 09006KT 03/M10 A303 RMK A01 T00261096  RH  040%=      5-min Rain = 0
KBO1 130252Z 09006KT 03/M10 A303 RMK A01 T00251096  RH  041%=      5-min Rain = 0
KBO1 130253Z 08006KT 02/M10 A303 RMK A01 T00241097  RH  041%=      5-min Rain = 0
KBO1 130254Z 08007KT 02/M10 A303 RMK A01 T00221097  RH  041%=      5-min Rain = 0
KBO1 130255Z 09008KT 02/M10 A303 RMK A01 T00211097  RH  041%=      5-min Rain = 0
KBO1 130256Z 10009KT 02/M10 A303 RMK A01 T00201098  RH  041%=      5-min Rain = 0
KBO1 130257Z 11010KT 02/M10 A303 RMK A01 T00201097  RH  042%=      5-min Rain = 0
KBO1 130258Z 12010KT 02/M10 A303 RMK A01 T00201097  RH  042%=      5-min Rain = 0
KBO1 130259Z 12012KT 02/M10 A303 RMK A01 T00211096  RH  042%=      5-min Rain = 0
KBO1 130300Z 12012KT 02/M10 A303 RMK A01 T00221095  RH  041%=      5-min Rain = 0
KBO1 130301Z 11010KT 03/M10 A3031 RMK A01 T00251095  RH  041%=      5-min Rain = 0
KBO1 130302Z 10009KT 03/M10 A3031 RMK A01 T00261095  RH  040%=      5-min Rain = 0
KBO1 130303Z 09008KT 03/M10 A3031 RMK A01 T00261096  RH  040%=      5-min Rain = 0
KBO1 130304Z 07006KT 03/M10 A3031 RMK A01 T00251096  RH  040%=      5-min Rain = 0
KBO1 130305Z 07006KT 02/M10 A3031 RMK A01 T00231097  RH  041%=      5-min Rain = 0
KBO1 130306Z 07007KT 02/M10 A3031 RMK A01 T00201098  RH  041%=      5-min Rain = 0
KBO1 130307Z 09008KT 02/M10 A3031 RMK A01 T00191098  RH  042%=      5-min Rain = 0
KBO1 130308Z 10009KT 02/M10 A3031 RMK A01 T00191098  RH  042%=      5-min Rain = 0
KBO1 130309Z 09009KT 02/M10 A3031 RMK A01 T00191097  RH  042%=      5-min Rain = 0
KBO1 130310Z 09008KT 02/M10 A3031 RMK A01 T00191097  RH  042%=      5-min Rain = 0
KBO1 130311Z 08009KT 02/M10 A3032 RMK A01 T00191097  RH  042%=      5-min Rain = 0
KBO1 130312Z 08008KT 02/M10 A3032 RMK A01 T00191097  RH  042%=      5-min Rain = 0
KBO1 130313Z 08009KT 02/M10 A3032 RMK A01 T00191098  RH  042%=      5-min Rain = 0
KBO1 130314Z 08010KT 02/M10 A3032 RMK A01 T00191098  RH  042%=      5-min Rain = 0
KBO1 130315Z 08010KT 02/M10 A3032 RMK A01 T00191097  RH  042%=      5-min Rain = 0
KBO1 130316Z 08010KT 02/M10 A3032 RMK A01 T00181098  RH  042%=      5-min Rain = 0
KBO1 130317Z 08010KT 02/M10 A3033 RMK A01 T00181098  RH  042%=      5-min Rain = 0
KBO1 130318Z 09010KT 02/M10 A3033 RMK A01 T00181099  RH  042%=      5-min Rain = 0
KBO1 130319Z 09010KT 02/M10 A3033 RMK A01 T00181099  RH  042%=      5-min Rain = 0
KBO1 130320Z 09010KT 02/M10 A3033 RMK A01 T00181099  RH  042%=      5-min Rain = 0
KBO1 130321Z 08009KT 02/M10 A3033 RMK A01 T00181099  RH  042%=      5-min Rain = 0
KBO1 130322Z 08009KT 02/M10 A3033 RMK A01 T00181099  RH  041%=      5-min Rain = 0
KBO1 130323Z 09009KT 02/M10 A3033 RMK A01 T00181099  RH  041%=      5-min Rain = 0
KBO1 130324Z 09008KT 02/M10 A3033 RMK A01 T00181099  RH  041%=      5-min Rain = 0
KBO1 130325Z 09008KT 02/M10 A3033 RMK A01 T00181099  RH  041%=      5-min Rain = 0
KBO1 130326Z 09007KT 02/M10 A3033 RMK A01 T00181099  RH  041%=      5-min Rain = 0
KBO1 130327Z 09007KT 02/M10 A3033 RMK A01 T00191099  RH  041%=      5-min Rain = 0
KBO1 130328Z 09006KT 02/M10 A3033 RMK A01 T00181099  RH  041%=      5-min Rain = 0
KBO1 130329Z 09007KT 02/M10 A3033 RMK A01 T00181099  RH  041%=      5-min Rain = 0
KBO1 130330Z 09008KT 02/M10 A3033 RMK A01 T00181099  RH  042%=      5-min Rain = 0
KBO1 130331Z 09008KT 02/M10 A3033 RMK A01 T00181099  RH  042%=      5-min Rain = 0
KBO1 130332Z 08010KT 02/M10 A3033 RMK A01 T00191099  RH  041%=      5-min Rain = 0
KBO1 130333Z 08010KT 02/M10 A3033 RMK A01 T00201099  RH  041%=      5-min Rain = 0
KBO1 130334Z 09009KT 02/M10 A3033 RMK A01 T00211098  RH  041%=      5-min Rain = 0
KBO1 130335Z 09008KT 02/M10 A3033 RMK A01 T00211099  RH  041%=      5-min Rain = 0
KBO1 130336Z 09009KT 02/M10 A3034 RMK A01 T00211099  RH  041%=      5-min Rain = 0
KBO1 130337Z 09009KT 02/M10 A3034 RMK A01 T00201100  RH  041%=      5-min Rain = 0
KBO1 130338Z 09008KT 02/M10 A3034 RMK A01 T00201100  RH  041%=      5-min Rain = 0
KBO1 130339Z 09009KT 02/M10 A3034 RMK A01 T00191100  RH  041%=      5-min Rain = 0
KBO1 130340Z 09009KT 02/M10 A3034 RMK A01 T00191100  RH  041%=      5-min Rain = 0
KBO1 130341Z 09009KT 02/M10 A3034 RMK A01 T00191100  RH  041%=      5-min Rain = 0
KBO1 130342Z 08009KT 02/M10 A3034 RMK A01 T00191100  RH  041%=      5-min Rain = 0
KBO1 130343Z 08009KT 02/M10 A3034 RMK A01 T00191100  RH  041%=      5-min Rain = 0
KBO1 130344Z 08009KT 02/M10 A3035 RMK A01 T00191100  RH  041%=      5-min Rain = 0
KBO1 130345Z 07009KT 02/M10 A3035 RMK A01 T00181100  RH  041%=      5-min Rain = 0
KBO1 130346Z 05008KT 02/M10 A3035 RMK A01 T00181100  RH  041%=      5-min Rain = 0
KBO1 130347Z 04008KT 02/M10 A3035 RMK A01 T00161101  RH  041%=      5-min Rain = 0
KBO1 130348Z 04008KT 02/M10 A3036 RMK A01 T00151101  RH  042%=      5-min Rain = 0
KBO1 130349Z 04008KT 01/M10 A3036 RMK A01 T00131101  RH  042%=      5-min Rain = 0
KBO1 130350Z 04006KT 01/M10 A3036 RMK A01 T00121102  RH  043%=      5-min Rain = 0
KBO1 130351Z 03006KT 01/M10 A3036 RMK A01 T00111102  RH  043%=      5-min Rain = 0
KBO1 130352Z 03007KT 01/M10 A3036 RMK A01 T00101101  RH  043%=      5-min Rain = 0
KBO1 130353Z 03007KT 01/M10 A3036 RMK A01 T00101100  RH  043%=      5-min Rain = 0
KBO1 130354Z 03006KT 01/M10 A3036 RMK A01 T00101101  RH  044%=      5-min Rain = 0
KBO1 130355Z 02005KT 01/M10 A3036 RMK A01 T00091101  RH  044%=      5-min Rain = 0
KBO1 130356Z 02005KT 01/M10 A3036 RMK A01 T00071102  RH  044%=      5-min Rain = 0
KBO1 130357Z 03004KT 01/M10 A3036 RMK A01 T00061101  RH  044%=      5-min Rain = 0
KBO1 130358Z 04004KT 01/M10 A3036 RMK A01 T00051101  RH  045%=      5-min Rain = 0
KBO1 130359Z 05004KT 00/M10 A3036 RMK A01 T00041101  RH  045%=      5-min Rain = 0
KBO1 130400Z 05004KT 00/M10 A3037 RMK A01 T00041100  RH  046%=      5-min Rain = 0
KBO1 130401Z 04004KT 00/M10 A3037 RMK A01 T00041100  RH  046%=      5-min Rain = 0
KBO1 130402Z 04003KT 00/M10 A3037 RMK A01 T00031100  RH  046%=      5-min Rain = 0
KBO1 130403Z 02004KT 00/M10 A3037 RMK A01 T00021101  RH  046%=      5-min Rain = 0
KBO1 130404Z 02005KT 00/M10 A3037 RMK A01 T00011101  RH  046%=      5-min Rain = 0
KBO1 130405Z 03006KT M00/M10 A3037 RMK A01 T10021103  RH  047%=      5-min Rain = 0
KBO1 130406Z 04007KT M01/M10 A3037 RMK A01 T10051104  RH  047%=      5-min Rain = 0
KBO1 130407Z 04007KT M01/M10 A3037 RMK A01 T10061103  RH  048%=      5-min Rain = 0
KBO1 130408Z 03007KT M01/M10 A3037 RMK A01 T10081103  RH  048%=      5-min Rain = 0
KBO1 130409Z 03007KT M01/M10 A3037 RMK A01 T10091104  RH  049%=      5-min Rain = 0
KBO1 130410Z 04007KT M01/M10 A3038 RMK A01 T10111104  RH  049%=      5-min Rain = 0
KBO1 130411Z 04007KT M01/M10 A3037 RMK A01 T10121104  RH  050%=      5-min Rain = 0
KBO1 130412Z 05007KT M01/M10 A3037 RMK A01 T10121104  RH  050%=      5-min Rain = 0
KBO1 130413Z 06007KT M01/M10 A3037 RMK A01 T10121104  RH  050%=      5-min Rain = 0
KBO1 130414Z 06007KT M01/M11 A3037 RMK A01 T10121105  RH  049%=      5-min Rain = 0
KBO1 130415Z 07008KT M01/M11 A3037 RMK A01 T10121106  RH  049%=      5-min Rain = 0
KBO1 130416Z 07008KT M01/M11 A3037 RMK A01 T10121106  RH  049%=      5-min Rain = 0
KBO1 130417Z 07007KT M01/M11 A3037 RMK A01 T10121107  RH  048%=      5-min Rain = 0
KBO1 130418Z 07007KT M01/M11 A3037 RMK A01 T10121107  RH  048%=      5-min Rain = 0
KBO1 130419Z 06007KT M01/M11 A3037 RMK A01 T10131108  RH  048%=      5-min Rain = 0
KBO1 130420Z 06008KT M01/M11 A3037 RMK A01 T10141109  RH  048%=      5-min Rain = 0
KBO1 130421Z 07008KT M02/M11 A3037 RMK A01 T10151109  RH  049%=      5-min Rain = 0
KBO1 130422Z 07008KT M02/M11 A3037 RMK A01 T10151110  RH  048%=      5-min Rain = 0
KBO1 130423Z 07007KT M02/M11 A3037 RMK A01 T10151110  RH  048%=      5-min Rain = 0
KBO1 130424Z 07007KT M02/M11 A3037 RMK A01 T10161111  RH  048%=      5-min Rain = 0
KBO1 130425Z 08006KT M02/M11 A3037 RMK A01 T10171112  RH  048%=      5-min Rain = 0
KBO1 130426Z 08006KT M02/M11 A3037 RMK A01 T10181113  RH  049%=      5-min Rain = 0
KBO1 130427Z 07006KT M02/M11 A3037 RMK A01 T10201114  RH  049%=      5-min Rain = 0
KBO1 130428Z 07006KT M02/M11 A3037 RMK A01 T10201114  RH  049%=      5-min Rain = 0
KBO1 130429Z 07006KT M02/M11 A3037 RMK A01 T10211114  RH  049%=      5-min Rain = 0
KBO1 130430Z 08006KT M02/M12 A3037 RMK A01 T10221115  RH  049%=      5-min Rain = 0
KBO1 130431Z 08006KT M02/M12 A3037 RMK A01 T10231115  RH  049%=      5-min Rain = 0
KBO1 130432Z 08007KT M02/M12 A3037 RMK A01 T10241115  RH  050%=      5-min Rain = 0
KBO1 130433Z 08007KT M03/M12 A3037 RMK A01 T10251116  RH  050%=      5-min Rain = 0
KBO1 130434Z 07006KT M03/M12 A3037 RMK A01 T10251116  RH  050%=      5-min Rain = 0
KBO1 130435Z 07007KT M03/M12 A3038 RMK A01 T10261116  RH  050%=      5-min Rain = 0
KBO1 130436Z 06007KT M03/M12 A3038 RMK A01 T10271117  RH  050%=      5-min Rain = 0
KBO1 130437Z 07006KT M03/M12 A3038 RMK A01 T10271116  RH  050%=      5-min Rain = 0
KBO1 130438Z 07006KT M03/M12 A3038 RMK A01 T10281117  RH  050%=      5-min Rain = 0
KBO1 130439Z 07006KT M03/M12 A3038 RMK A01 T10281117  RH  050%=      5-min Rain = 0
KBO1 130440Z 07006KT M03/M12 A3038 RMK A01 T10281117  RH  050%=      5-min Rain = 0
KBO1 130441Z 07006KT M03/M12 A3038 RMK A01 T10281117  RH  050%=      5-min Rain = 0
KBO1 130442Z 07006KT M03/M12 A3038 RMK A01 T10281117  RH  050%=      5-min Rain = 0
KBO1 130443Z 07006KT M03/M12 A3038 RMK A01 T10281117  RH  050%=      5-min Rain = 0
KBO1 130444Z 07005KT M03/M12 A3038 RMK A01 T10281118  RH  050%=      5-min Rain = 0
KBO1 130445Z 06005KT M03/M12 A3038 RMK A01 T10291118  RH  050%=      5-min Rain = 0
KBO1 130446Z 05005KT M03/M12 A3038 RMK A01 T10301119  RH  050%=      5-min Rain = 0
KBO1 130447Z 05005KT M03/M12 A3039 RMK A01 T10301119  RH  050%=      5-min Rain = 0
KBO1 130448Z 05005KT M03/M12 A3039 RMK A01 T10311119  RH  051%=      5-min Rain = 0
KBO1 130449Z 05005KT M03/M12 A3039 RMK A01 T10321120  RH  051%=      5-min Rain = 0
KBO1 130450Z 05004KT M03/M12 A3039 RMK A01 T10331120  RH  051%=      5-min Rain = 0
KBO1 130451Z 03004KT M03/M12 A3039 RMK A01 T10341120  RH  051%=      5-min Rain = 0
KBO1 130452Z 03005KT M04/M12 A3039 RMK A01 T10351121  RH  051%=      5-min Rain = 0
KBO1 130453Z 03004KT M04/M12 A3039 RMK A01 T10361121  RH  052%=      5-min Rain = 0
KBO1 130454Z 02005KT M04/M12 A3039 RMK A01 T10371122  RH  052%=      5-min Rain = 0
KBO1 130455Z 02006KT M04/M12 A304 RMK A01 T10381122  RH  052%=      5-min Rain = 0
KBO1 130456Z 03005KT M04/M12 A304 RMK A01 T10401123  RH  052%=      5-min Rain = 0
KBO1 130457Z 04004KT M04/M12 A304 RMK A01 T10411123  RH  053%=      5-min Rain = 0
KBO1 130458Z 05004KT M04/M12 A304 RMK A01 T10421123  RH  053%=      5-min Rain = 0
KBO1 130459Z 03004KT M04/M12 A304 RMK A01 T10421122  RH  054%=      5-min Rain = 0
KBO1 130500Z 02005KT M04/M12 A304 RMK A01 T10421122  RH  054%=      5-min Rain = 0
KBO1 130501Z 03004KT M04/M12 A304 RMK A01 T10421122  RH  054%=      5-min Rain = 0
KBO1 130502Z 03004KT M04/M12 A304 RMK A01 T10421122  RH  054%=      5-min Rain = 0
KBO1 130503Z 02004KT M04/M12 A304 RMK A01 T10431123  RH  054%=      5-min Rain = 0
KBO1 130504Z 02005KT M04/M12 A304 RMK A01 T10421122  RH  054%=      5-min Rain = 0
KBO1 130505Z 02005KT M04/M12 A304 RMK A01 T10421122  RH  054%=      5-min Rain = 0
KBO1 130506Z 04004KT M04/M12 A304 RMK A01 T10411122  RH  053%=      5-min Rain = 0
KBO1 130507Z 03004KT M04/M12 A304 RMK A01 T10421122  RH  053%=      5-min Rain = 0
KBO1 130508Z 01005KT M04/M12 A3041 RMK A01 T10421122  RH  054%=      5-min Rain = 0
KBO1 130509Z 01005KT M04/M12 A3041 RMK A01 T10411122  RH  053%=      5-min Rain = 0
KBO1 130510Z 01003KT M04/M12 A3041 RMK A01 T10421123  RH  053%=      5-min Rain = 0
KBO1 130511Z 36002KT M04/M12 A3041 RMK A01 T10431124  RH  053%=      5-min Rain = 0
KBO1 130512Z 35003KT M04/M12 A3041 RMK A01 T10441124  RH  054%=      5-min Rain = 0
KBO1 130513Z 36005KT M04/M12 A3041 RMK A01 T10441123  RH  054%=      5-min Rain = 0
KBO1 130514Z 00005KT M05/M12 A3041 RMK A01 T10451124  RH  054%=      5-min Rain = 0
KBO1 130515Z 02004KT M04/M12 A3041 RMK A01 T10441123  RH  054%=      5-min Rain = 0
KBO1 130516Z 04004KT M04/M12 A3041 RMK A01 T10431122  RH  054%=      5-min Rain = 0
KBO1 130517Z 03004KT M04/M12 A3041 RMK A01 T10431122  RH  054%=      5-min Rain = 0
KBO1 130518Z 02004KT M04/M12 A3041 RMK A01 T10431123  RH  054%=      5-min Rain = 0
KBO1 130519Z 02004KT M04/M12 A3041 RMK A01 T10421123  RH  054%=      5-min Rain = 0
KBO1 130520Z 02004KT M04/M12 A3041 RMK A01 T10421123  RH  053%=      5-min Rain = 0
KBO1 130521Z 03005KT M04/M12 A3041 RMK A01 T10421123  RH  053%=      5-min Rain = 0
KBO1 130522Z 04004KT M04/M12 A3041 RMK A01 T10421122  RH  053%=      5-min Rain = 0
KBO1 130523Z 04004KT M04/M12 A3041 RMK A01 T10421122  RH  053%=      5-min Rain = 0
KBO1 130524Z 02004KT M04/M12 A3041 RMK A01 T10421122  RH  053%=      5-min Rain = 0
KBO1 130525Z 01004KT M04/M12 A3041 RMK A01 T10421123  RH  053%=      5-min Rain = 0
KBO1 130526Z 02003KT M04/M12 A3041 RMK A01 T10431124  RH  053%=      5-min Rain = 0
KBO1 130527Z 04002KT M04/M12 A3041 RMK A01 T10441124  RH  054%=      5-min Rain = 0
KBO1 130528Z 04002KT M05/M12 A3041 RMK A01 T10451124  RH  054%=      5-min Rain = 0
KBO1 130529Z 03003KT M05/M12 A3041 RMK A01 T10451123  RH  054%=      5-min Rain = 0
KBO1 130530Z 03003KT M05/M12 A3041 RMK A01 T10451123  RH  054%=      5-min Rain = 0
KBO1 130531Z 01002KT M04/M12 A3041 RMK A01 T10441123  RH  054%=      5-min Rain = 0
KBO1 130532Z 02002KT M04/M12 A3041 RMK A01 T10441122  RH  054%=      5-min Rain = 0
KBO1 130533Z 03002KT M04/M12 A3041 RMK A01 T10431122  RH  054%=      5-min Rain = 0
KBO1 130534Z 04003KT M04/M12 A3041 RMK A01 T10421121  RH  054%=      5-min Rain = 0
KBO1 130535Z 03004KT M04/M12 A3041 RMK A01 T10411121  RH  053%=      5-min Rain = 0
KBO1 130536Z 02004KT M04/M12 A3041 RMK A01 T10391121  RH  053%=      5-min Rain = 0
KBO1 130537Z 03003KT M04/M12 A3041 RMK A01 T10391122  RH  053%=      5-min Rain = 0
KBO1 130538Z 04003KT M04/M12 A3041 RMK A01 T10391122  RH  053%=      5-min Rain = 0
KBO1 130539Z 03003KT M04/M12 A3041 RMK A01 T10391122  RH  052%=      5-min Rain = 0
KBO1 130540Z 03004KT M04/M12 A3042 RMK A01 T10391122  RH  052%=      5-min Rain = 0
KBO1 130541Z 03004KT M04/M12 A3042 RMK A01 T10401123  RH  052%=      5-min Rain = 0
KBO1 130542Z 04004KT M04/M12 A3041 RMK A01 T10401123  RH  052%=      5-min Rain = 0
KBO1 130543Z 05003KT M04/M12 A3041 RMK A01 T10401124  RH  052%=      5-min Rain = 0
KBO1 130544Z 06003KT M04/M12 A3041 RMK A01 T10411124  RH  053%=      5-min Rain = 0
KBO1 130545Z 05003KT M04/M12 A3042 RMK A01 T10421124  RH  053%=      5-min Rain = 0
KBO1 130546Z 03004KT M04/M13 A3042 RMK A01 T10431125  RH  053%=      5-min Rain = 0
KBO1 130547Z 03005KT M04/M13 A3042 RMK A01 T10441125  RH  053%=      5-min Rain = 0
KBO1 130548Z 04003KT M04/M13 A3042 RMK A01 T10441125  RH  053%=      5-min Rain = 0
KBO1 130549Z 05002KT M04/M13 A3041 RMK A01 T10441125  RH  053%=      5-min Rain = 0
KBO1 130550Z 06002KT M04/M13 A3041 RMK A01 T10441125  RH  053%=      5-min Rain = 0
KBO1 130551Z 04003KT M04/M13 A3042 RMK A01 T10441125  RH  053%=      5-min Rain = 0
KBO1 130552Z 03005KT M04/M12 A3042 RMK A01 T10441124  RH  053%=      5-min Rain = 0
KBO1 130553Z 03005KT M04/M12 A3042 RMK A01 T10441124  RH  053%=      5-min Rain = 0
KBO1 130554Z 04004KT M04/M12 A3042 RMK A01 T10441124  RH  053%=      5-min Rain = 0
KBO1 130555Z 06003KT M05/M13 A3041 RMK A01 T10451125  RH  053%=      5-min Rain = 0
KBO1 130556Z 05003KT M05/M13 A3041 RMK A01 T10451125  RH  054%=      5-min Rain = 0
KBO1 130557Z 04004KT M05/M13 A3042 RMK A01 T10461125  RH  054%=      5-min Rain = 0
KBO1 130558Z 03005KT M05/M13 A3042 RMK A01 T10471125  RH  054%=      5-min Rain = 0
KBO1 130559Z 03004KT M05/M13 A3042 RMK A01 T10471125  RH  054%=      5-min Rain = 0

Page generated in 0.0751 seconds.